Observation data for Fritch on 09/21/2020      Previous  Date  Next       Current Mesonet Observations  Soil Data  Daily Summary Page  Observations in Plain Language
KFR1 210500Z 16015KT 18/09 A3017 RMK A01 T01800091  RH  056%=      5-min Rain = 0
KFR1 210501Z 16017KT 18/09 A3017 RMK A01 T01790090  RH  056%=      5-min Rain = 0
KFR1 210502Z 16017KT 18/09 A3017 RMK A01 T01790090  RH  056%=      5-min Rain = 0
KFR1 210503Z 16018G24KT 18/09 A3017 RMK A01 T01790090  RH  056%=      5-min Rain = 0
KFR1 210504Z 16018G25KT 18/09 A3017 RMK A01 T01790090  RH  056%=      5-min Rain = 0
KFR1 210505Z 16019G24KT 18/09 A3017 RMK A01 T01790090  RH  056%=      5-min Rain = 0
KFR1 210506Z 16019G24KT 18/09 A3017 RMK A01 T01780090  RH  056%=      5-min Rain = 0
KFR1 210507Z 16015KT 18/09 A3017 RMK A01 T01780090  RH  056%=      5-min Rain = 0
KFR1 210508Z 17015KT 18/09 A3017 RMK A01 T01780091  RH  056%=      5-min Rain = 0
KFR1 210509Z 16016G21KT 18/09 A3017 RMK A01 T01770090  RH  057%=      5-min Rain = 0
KFR1 210510Z 16015KT 18/09 A3017 RMK A01 T01770090  RH  057%=      5-min Rain = 0
KFR1 210511Z 16018KT 18/09 A3017 RMK A01 T01770090  RH  057%=      5-min Rain = 0
KFR1 210512Z 16016G21KT 18/09 A3017 RMK A01 T01770091  RH  057%=      5-min Rain = 0
KFR1 210513Z 16018G23KT 18/09 A3017 RMK A01 T01770090  RH  057%=      5-min Rain = 0
KFR1 210514Z 16018G23KT 18/09 A3017 RMK A01 T01770090  RH  057%=      5-min Rain = 0
KFR1 210515Z 16019KT 18/09 A3017 RMK A01 T01770090  RH  057%=      5-min Rain = 0
KFR1 210516Z 16018KT 18/09 A3017 RMK A01 T01770090  RH  057%=      5-min Rain = 0
KFR1 210517Z 16020G25KT 18/09 A3017 RMK A01 T01770090  RH  057%=      5-min Rain = 0
KFR1 210518Z 16019G24KT 18/09 A3017 RMK A01 T01770090  RH  057%=      5-min Rain = 0
KFR1 210519Z 16019KT 18/09 A3017 RMK A01 T01770091  RH  057%=      5-min Rain = 0
KFR1 210520Z 16017KT 18/09 A3017 RMK A01 T01770091  RH  057%=      5-min Rain = 0
KFR1 210521Z 16018KT 18/09 A3017 RMK A01 T01760091  RH  057%=      5-min Rain = 0
KFR1 210522Z 17015G21KT 18/09 A3017 RMK A01 T01760091  RH  057%=      5-min Rain = 0
KFR1 210523Z 16016G23KT 18/09 A3017 RMK A01 T01750091  RH  057%=      5-min Rain = 0
KFR1 210524Z 17016G21KT 18/09 A3017 RMK A01 T01750091  RH  058%=      5-min Rain = 0
KFR1 210525Z 17020KT 18/09 A3017 RMK A01 T01750091  RH  058%=      5-min Rain = 0
KFR1 210526Z 16018G23KT 18/09 A3017 RMK A01 T01750091  RH  058%=      5-min Rain = 0
KFR1 210527Z 17018G24KT 18/09 A3017 RMK A01 T01750091  RH  058%=      5-min Rain = 0
KFR1 210528Z 17016KT 17/09 A3017 RMK A01 T01740091  RH  058%=      5-min Rain = 0
KFR1 210529Z 16016G24KT 17/09 A3017 RMK A01 T01740091  RH  058%=      5-min Rain = 0
KFR1 210530Z 17018G23KT 17/09 A3017 RMK A01 T01730092  RH  059%=      5-min Rain = 0
KFR1 210531Z 16018G23KT 17/09 A3017 RMK A01 T01730092  RH  059%=      5-min Rain = 0
KFR1 210532Z 17018KT 17/09 A3017 RMK A01 T01730092  RH  059%=      5-min Rain = 0
KFR1 210533Z 16018KT 17/09 A3017 RMK A01 T01730092  RH  059%=      5-min Rain = 0
KFR1 210534Z 17019G26KT 17/09 A3017 RMK A01 T01730092  RH  059%=      5-min Rain = 0
KFR1 210535Z 16019G24KT 17/09 A3017 RMK A01 T01730092  RH  059%=      5-min Rain = 0
KFR1 210536Z 16019KT 17/09 A3017 RMK A01 T01730092  RH  059%=      5-min Rain = 0
KFR1 210537Z 16018G23KT 17/09 A3017 RMK A01 T01730092  RH  059%=      5-min Rain = 0
KFR1 210538Z 16018G24KT 17/09 A3017 RMK A01 T01730092  RH  059%=      5-min Rain = 0
KFR1 210539Z 16016KT 17/09 A3017 RMK A01 T01730092  RH  059%=      5-min Rain = 0
KFR1 210540Z 16015G20KT 17/09 A3017 RMK A01 T01720093  RH  059%=      5-min Rain = 0
KFR1 210541Z 16018G24KT 17/09 A3017 RMK A01 T01720093  RH  060%=      5-min Rain = 0
KFR1 210542Z 16017KT 17/09 A3017 RMK A01 T01720092  RH  060%=      5-min Rain = 0
KFR1 210543Z 16016G22KT 17/09 A3017 RMK A01 T01710092  RH  060%=      5-min Rain = 0
KFR1 210544Z 17018G24KT 17/09 A3017 RMK A01 T01710092  RH  060%=      5-min Rain = 0
KFR1 210545Z 16015G21KT 17/09 A3017 RMK A01 T01710092  RH  060%=      5-min Rain = 0
KFR1 210546Z 16019G25KT 17/09 A3017 RMK A01 T01710093  RH  060%=      5-min Rain = 0
KFR1 210547Z 16019KT 17/09 A3017 RMK A01 T01710093  RH  060%=      5-min Rain = 0
KFR1 210548Z 16019G24KT 17/09 A3017 RMK A01 T01710093  RH  060%=      5-min Rain = 0
KFR1 210549Z 16018KT 17/09 A3017 RMK A01 T01710092  RH  060%=      5-min Rain = 0
KFR1 210550Z 16019G25KT 17/09 A3017 RMK A01 T01710093  RH  060%=      5-min Rain = 0
KFR1 210551Z 16019G26KT 17/09 A3017 RMK A01 T01710093  RH  060%=      5-min Rain = 0
KFR1 210552Z 17019KT 17/09 A3017 RMK A01 T01710093  RH  060%=      5-min Rain = 0
KFR1 210553Z 16019KT 17/09 A3017 RMK A01 T01700092  RH  060%=      5-min Rain = 0
KFR1 210554Z 16017KT 17/09 A3017 RMK A01 T01700092  RH  060%=      5-min Rain = 0
KFR1 210555Z 16016G23KT 17/09 A3017 RMK A01 T01700092  RH  060%=      5-min Rain = 0
KFR1 210556Z 16016G23KT 17/09 A3017 RMK A01 T01700092  RH  060%=      5-min Rain = 0
KFR1 210557Z 17016KT 17/09 A3017 RMK A01 T01690092  RH  060%=      5-min Rain = 0
KFR1 210558Z 16018G24KT 17/09 A3017 RMK A01 T01690092  RH  060%=      5-min Rain = 0
KFR1 210559Z 16019KT 17/09 A3017 RMK A01 T01690092  RH  060%=      5-min Rain = 0
KFR1 210600Z 16018KT 17/09 A3017 RMK A01 T01690092  RH  060%=      5-min Rain = 0
KFR1 210601Z 17019KT 17/09 A3017 RMK A01 T01690092  RH  060%=      5-min Rain = 0
KFR1 210602Z 16018G24KT 17/09 A3017 RMK A01 T01690092  RH  060%=      5-min Rain = 0
KFR1 210603Z 17019KT 17/09 A3017 RMK A01 T01690091  RH  060%=      5-min Rain = 0
KFR1 210604Z 17017G22KT 17/09 A3017 RMK A01 T01690092  RH  060%=      5-min Rain = 0
KFR1 210605Z 17019G24KT 17/09 A3017 RMK A01 T01690091  RH  060%=      5-min Rain = 0
KFR1 210606Z 17018KT 17/09 A3017 RMK A01 T01690091  RH  060%=      5-min Rain = 0
KFR1 210607Z 17017G22KT 17/09 A3017 RMK A01 T01690091  RH  060%=      5-min Rain = 0
KFR1 210608Z 16018KT 17/09 A3017 RMK A01 T01690091  RH  060%=      5-min Rain = 0
KFR1 210609Z 16017G23KT 17/09 A3017 RMK A01 T01680091  RH  060%=      5-min Rain = 0
KFR1 210610Z 17016G22KT 17/09 A3017 RMK A01 T01680091  RH  060%=      5-min Rain = 0
KFR1 210611Z 16019G24KT 17/09 A3017 RMK A01 T01680091  RH  060%=      5-min Rain = 0
KFR1 210612Z 16020KT 17/09 A3017 RMK A01 T01680090  RH  060%=      5-min Rain = 0
KFR1 210613Z 17017KT 17/09 A3017 RMK A01 T01680090  RH  060%=      5-min Rain = 0
KFR1 210614Z 17018KT 17/09 A3017 RMK A01 T01680090  RH  060%=      5-min Rain = 0
KFR1 210615Z 17019KT 17/09 A3017 RMK A01 T01690090  RH  060%=      5-min Rain = 0
KFR1 210616Z 16016G21KT 17/09 A3017 RMK A01 T01680090  RH  060%=      5-min Rain = 0
KFR1 210617Z 16018KT 17/09 A3017 RMK A01 T01680090  RH  060%=      5-min Rain = 0
KFR1 210618Z 17017G22KT 17/09 A3017 RMK A01 T01680090  RH  060%=      5-min Rain = 0
KFR1 210619Z 16018KT 17/09 A3017 RMK A01 T01680090  RH  060%=      5-min Rain = 0
KFR1 210620Z 17019KT 17/09 A3017 RMK A01 T01680090  RH  060%=      5-min Rain = 0
KFR1 210621Z 17017G22KT 17/09 A3017 RMK A01 T01680089  RH  060%=      5-min Rain = 0
KFR1 210622Z 17018G24KT 17/09 A3017 RMK A01 T01680089  RH  060%=      5-min Rain = 0
KFR1 210623Z 16017G23KT 17/09 A3017 RMK A01 T01680089  RH  060%=      5-min Rain = 0
KFR1 210624Z 17016G24KT 17/09 A3017 RMK A01 T01680089  RH  060%=      5-min Rain = 0
KFR1 210625Z 17019G24KT 17/09 A3017 RMK A01 T01680089  RH  060%=      5-min Rain = 0
KFR1 210626Z 17018KT 17/09 A3017 RMK A01 T01680089  RH  060%=      5-min Rain = 0
KFR1 210627Z 17019G24KT 17/09 A3017 RMK A01 T01680089  RH  060%=      5-min Rain = 0
KFR1 210628Z 17021G27KT 17/09 A3017 RMK A01 T01680090  RH  060%=      5-min Rain = 0
KFR1 210629Z 17018KT 17/09 A3017 RMK A01 T01680089  RH  060%=      5-min Rain = 0
KFR1 210630Z 17017KT 17/09 A3017 RMK A01 T01680089  RH  060%=      5-min Rain = 0
KFR1 210631Z 17018G23KT 17/09 A3017 RMK A01 T01670089  RH  060%=      5-min Rain = 0
KFR1 210632Z 17015G21KT 17/09 A3017 RMK A01 T01670089  RH  060%=      5-min Rain = 0
KFR1 210633Z 17017G22KT 17/09 A3017 RMK A01 T01670089  RH  060%=      5-min Rain = 0
KFR1 210634Z 17020KT 17/09 A3017 RMK A01 T01670089  RH  060%=      5-min Rain = 0
KFR1 210635Z 17018G23KT 17/09 A3017 RMK A01 T01670089  RH  060%=      5-min Rain = 0
KFR1 210636Z 17017KT 17/09 A3017 RMK A01 T01670089  RH  060%=      5-min Rain = 0
KFR1 210637Z 17016KT 17/09 A3017 RMK A01 T01670089  RH  060%=      5-min Rain = 0
KFR1 210638Z 17016G21KT 17/09 A3017 RMK A01 T01670090  RH  060%=      5-min Rain = 0
KFR1 210639Z 17018G23KT 17/09 A3017 RMK A01 T01660089  RH  060%=      5-min Rain = 0
KFR1 210640Z 17017KT 17/09 A3017 RMK A01 T01660089  RH  060%=      5-min Rain = 0
KFR1 210641Z 17017G22KT 17/09 A3017 RMK A01 T01670089  RH  060%=      5-min Rain = 0
KFR1 210642Z 17017G23KT 17/09 A3017 RMK A01 T01670089  RH  060%=      5-min Rain = 0
KFR1 210643Z 17017G23KT 17/09 A3017 RMK A01 T01670089  RH  060%=      5-min Rain = 0
KFR1 210644Z 17015KT 17/09 A3017 RMK A01 T01670089  RH  060%=      5-min Rain = 0
KFR1 210645Z 17013KT 17/09 A3017 RMK A01 T01670090  RH  060%=      5-min Rain = 0
KFR1 210646Z 17017KT 17/09 A3017 RMK A01 T01660089  RH  060%=      5-min Rain = 0
KFR1 210647Z 17020KT 17/09 A3017 RMK A01 T01670090  RH  060%=      5-min Rain = 0
KFR1 210648Z 17017KT 17/09 A3017 RMK A01 T01660089  RH  060%=      5-min Rain = 0
KFR1 210649Z 17016KT 17/09 A3017 RMK A01 T01660089  RH  060%=      5-min Rain = 0
KFR1 210650Z 17019KT 17/09 A3017 RMK A01 T01660089  RH  060%=      5-min Rain = 0
KFR1 210651Z 17017KT 17/09 A3017 RMK A01 T01670090  RH  060%=      5-min Rain = 0
KFR1 210652Z 17017KT 17/09 A3017 RMK A01 T01660089  RH  060%=      5-min Rain = 0
KFR1 210653Z 17016G21KT 17/09 A3017 RMK A01 T01660089  RH  060%=      5-min Rain = 0
KFR1 210654Z 17017KT 17/09 A3017 RMK A01 T01660089  RH  060%=      5-min Rain = 0
KFR1 210655Z 17014G19KT 17/09 A3018 RMK A01 T01660089  RH  060%=      5-min Rain = 0
KFR1 210656Z 17017G24KT 17/09 A3018 RMK A01 T01670090  RH  060%=      5-min Rain = 0
KFR1 210657Z 17016KT 17/09 A3018 RMK A01 T01660089  RH  060%=      5-min Rain = 0
KFR1 210658Z 17015G20KT 17/09 A3018 RMK A01 T01660089  RH  060%=      5-min Rain = 0
KFR1 210659Z 18016KT 17/09 A3018 RMK A01 T01660089  RH  060%=      5-min Rain = 0
KFR1 210700Z 17015KT 17/09 A3018 RMK A01 T01660089  RH  060%=      5-min Rain = 0
KFR1 210701Z 18016KT 17/09 A3018 RMK A01 T01660089  RH  060%=      5-min Rain = 0
KFR1 210702Z 18016KT 17/09 A3018 RMK A01 T01660089  RH  060%=      5-min Rain = 0
KFR1 210703Z 17015KT 17/09 A3018 RMK A01 T01660089  RH  060%=      5-min Rain = 0
KFR1 210704Z 18014KT 17/09 A3018 RMK A01 T01660089  RH  060%=      5-min Rain = 0
KFR1 210705Z 18014G19KT 17/09 A3018 RMK A01 T01660089  RH  060%=      5-min Rain = 0
KFR1 210706Z 18017KT 17/09 A3018 RMK A01 T01650089  RH  060%=      5-min Rain = 0
KFR1 210707Z 17014G19KT 17/09 A3018 RMK A01 T01650089  RH  060%=      5-min Rain = 0
KFR1 210708Z 18014KT 17/09 A3018 RMK A01 T01650089  RH  060%=      5-min Rain = 0
KFR1 210709Z 18017KT 17/09 A3018 RMK A01 T01650088  RH  060%=      5-min Rain = 0
KFR1 210710Z 17016G22KT 17/09 A3018 RMK A01 T01650088  RH  060%=      5-min Rain = 0
KFR1 210711Z 18018G24KT 17/09 A3018 RMK A01 T01650088  RH  060%=      5-min Rain = 0
KFR1 210712Z 18016KT 17/09 A3018 RMK A01 T01650088  RH  060%=      5-min Rain = 0
KFR1 210713Z 18014G20KT 17/09 A3018 RMK A01 T01650088  RH  060%=      5-min Rain = 0
KFR1 210714Z 18014KT 17/09 A3018 RMK A01 T01650088  RH  060%=      5-min Rain = 0
KFR1 210715Z 18013KT 17/09 A3018 RMK A01 T01650088  RH  060%=      5-min Rain = 0
KFR1 210716Z 18015G20KT 16/09 A3018 RMK A01 T01640088  RH  061%=      5-min Rain = 0
KFR1 210717Z 18015G20KT 16/09 A3018 RMK A01 T01640088  RH  061%=      5-min Rain = 0
KFR1 210718Z 18015G20KT 16/09 A3018 RMK A01 T01640088  RH  061%=      5-min Rain = 0
KFR1 210719Z 18018KT 16/09 A3018 RMK A01 T01640088  RH  061%=      5-min Rain = 0
KFR1 210720Z 18016KT 17/09 A3018 RMK A01 T01650088  RH  061%=      5-min Rain = 0
KFR1 210721Z 18016KT 17/09 A3018 RMK A01 T01650088  RH  061%=      5-min Rain = 0
KFR1 210722Z 18015G20KT 17/09 A3018 RMK A01 T01650089  RH  061%=      5-min Rain = 0
KFR1 210723Z 18012KT 16/09 A3018 RMK A01 T01640088  RH  061%=      5-min Rain = 0
KFR1 210724Z 18013G18KT 16/09 A3018 RMK A01 T01640088  RH  061%=      5-min Rain = 0
KFR1 210725Z 18013KT 16/09 A3018 RMK A01 T01640089  RH  061%=      5-min Rain = 0
KFR1 210726Z 18016G21KT 16/09 A3018 RMK A01 T01630089  RH  061%=      5-min Rain = 0
KFR1 210727Z 18015KT 16/09 A3018 RMK A01 T01630089  RH  061%=      5-min Rain = 0
KFR1 210728Z 18013G18KT 16/09 A3018 RMK A01 T01630089  RH  061%=      5-min Rain = 0
KFR1 210729Z 18012KT 16/09 A3018 RMK A01 T01630089  RH  062%=      5-min Rain = 0
KFR1 210730Z 18014G19KT 16/09 A3018 RMK A01 T01630089  RH  062%=      5-min Rain = 0
KFR1 210731Z 18016G21KT 16/09 A3018 RMK A01 T01620089  RH  062%=      5-min Rain = 0
KFR1 210732Z 18014KT 16/09 A3018 RMK A01 T01620089  RH  062%=      5-min Rain = 0
KFR1 210733Z 18013G21KT 16/09 A3018 RMK A01 T01630089  RH  062%=      5-min Rain = 0
KFR1 210734Z 18017KT 16/09 A3018 RMK A01 T01630089  RH  062%=      5-min Rain = 0
KFR1 210735Z 18015KT 16/09 A3018 RMK A01 T01630089  RH  062%=      5-min Rain = 0
KFR1 210736Z 18014KT 16/09 A3018 RMK A01 T01630089  RH  061%=      5-min Rain = 0
KFR1 210737Z 18014KT 16/09 A3018 RMK A01 T01630089  RH  062%=      5-min Rain = 0
KFR1 210738Z 18014G19KT 16/09 A3018 RMK A01 T01630089  RH  062%=      5-min Rain = 0
KFR1 210739Z 18014KT 16/09 A3018 RMK A01 T01630089  RH  062%=      5-min Rain = 0
KFR1 210740Z 18015G21KT 16/09 A3018 RMK A01 T01630089  RH  061%=      5-min Rain = 0
KFR1 210741Z 18014KT 16/09 A3018 RMK A01 T01630088  RH  061%=      5-min Rain = 0
KFR1 210742Z 18015KT 16/09 A3018 RMK A01 T01620088  RH  061%=      5-min Rain = 0
KFR1 210743Z 18014KT 16/09 A3018 RMK A01 T01620088  RH  061%=      5-min Rain = 0
KFR1 210744Z 18012KT 16/09 A3018 RMK A01 T01620088  RH  061%=      5-min Rain = 0
KFR1 210745Z 18012KT 16/09 A3018 RMK A01 T01620087  RH  061%=      5-min Rain = 0
KFR1 210746Z 18013KT 16/09 A3018 RMK A01 T01610088  RH  061%=      5-min Rain = 0
KFR1 210747Z 18015KT 16/09 A3018 RMK A01 T01610087  RH  061%=      5-min Rain = 0
KFR1 210748Z 18014KT 16/09 A3018 RMK A01 T01610087  RH  061%=      5-min Rain = 0
KFR1 210749Z 19011KT 16/09 A3018 RMK A01 T01610086  RH  061%=      5-min Rain = 0
KFR1 210750Z 18012G17KT 16/09 A3018 RMK A01 T01610086  RH  061%=      5-min Rain = 0
KFR1 210751Z 19011G16KT 16/09 A3019 RMK A01 T01610086  RH  061%=      5-min Rain = 0
KFR1 210752Z 18012KT 16/09 A3019 RMK A01 T01610086  RH  061%=      5-min Rain = 0
KFR1 210753Z 19013KT 16/09 A3019 RMK A01 T01610086  RH  061%=      5-min Rain = 0
KFR1 210754Z 19012KT 16/09 A3019 RMK A01 T01610086  RH  061%=      5-min Rain = 0
KFR1 210755Z 18009KT 16/09 A3019 RMK A01 T01610086  RH  061%=      5-min Rain = 0
KFR1 210756Z 18010G15KT 16/09 A3019 RMK A01 T01600086  RH  061%=      5-min Rain = 0
KFR1 210757Z 19011KT 16/09 A3019 RMK A01 T01600086  RH  062%=      5-min Rain = 0
KFR1 210758Z 19012KT 16/09 A3019 RMK A01 T01600086  RH  062%=      5-min Rain = 0
KFR1 210759Z 18011KT 16/09 A3019 RMK A01 T01590086  RH  062%=      5-min Rain = 0
KFR1 210800Z 19011KT 16/09 A3019 RMK A01 T01600086  RH  062%=      5-min Rain = 0
KFR1 210801Z 18014G19KT 16/09 A3019 RMK A01 T01590086  RH  062%=      5-min Rain = 0
KFR1 210802Z 19012KT 16/09 A3019 RMK A01 T01600086  RH  062%=      5-min Rain = 0
KFR1 210803Z 19012KT 16/09 A3019 RMK A01 T01600086  RH  062%=      5-min Rain = 0
KFR1 210804Z 19009KT 16/09 A3019 RMK A01 T01600086  RH  062%=      5-min Rain = 0
KFR1 210805Z 20010KT 16/09 A3019 RMK A01 T01600087  RH  062%=      5-min Rain = 0
KFR1 210806Z 19014KT 16/09 A3019 RMK A01 T01600087  RH  062%=      5-min Rain = 0
KFR1 210807Z 19009KT 16/09 A3019 RMK A01 T01590086  RH  062%=      5-min Rain = 0
KFR1 210808Z 20010KT 16/09 A3019 RMK A01 T01600086  RH  062%=      5-min Rain = 0
KFR1 210809Z 19010KT 16/09 A3019 RMK A01 T01600087  RH  062%=      5-min Rain = 0
KFR1 210810Z 19011KT 16/09 A3019 RMK A01 T01590086  RH  062%=      5-min Rain = 0
KFR1 210811Z 19010KT 16/09 A3019 RMK A01 T01590086  RH  062%=      5-min Rain = 0
KFR1 210812Z 19013KT 16/09 A3019 RMK A01 T01590086  RH  062%=      5-min Rain = 0
KFR1 210813Z 19012KT 16/09 A3019 RMK A01 T01580086  RH  062%=      5-min Rain = 0
KFR1 210814Z 20011KT 16/09 A3019 RMK A01 T01590086  RH  062%=      5-min Rain = 0
KFR1 210815Z 20012KT 16/09 A3019 RMK A01 T01590086  RH  062%=      5-min Rain = 0
KFR1 210816Z 20008KT 16/09 A3019 RMK A01 T01580086  RH  062%=      5-min Rain = 0
KFR1 210817Z 20011KT 16/09 A3019 RMK A01 T01580086  RH  062%=      5-min Rain = 0
KFR1 210818Z 20011KT 16/09 A3019 RMK A01 T01580086  RH  062%=      5-min Rain = 0
KFR1 210819Z 20010KT 16/09 A3019 RMK A01 T01580086  RH  062%=      5-min Rain = 0
KFR1 210820Z 20009G14KT 16/09 A3019 RMK A01 T01580086  RH  062%=      5-min Rain = 0
KFR1 210821Z 20010KT 16/09 A3019 RMK A01 T01570086  RH  062%=      5-min Rain = 0
KFR1 210822Z 20009KT 16/09 A3019 RMK A01 T01570086  RH  063%=      5-min Rain = 0
KFR1 210823Z 20010KT 16/09 A3019 RMK A01 T01560086  RH  063%=      5-min Rain = 0
KFR1 210824Z 20007KT 16/09 A3019 RMK A01 T01560086  RH  063%=      5-min Rain = 0
KFR1 210825Z 19009KT 16/09 A3019 RMK A01 T01560086  RH  063%=      5-min Rain = 0
KFR1 210826Z 20007KT 16/09 A3019 RMK A01 T01560086  RH  063%=      5-min Rain = 0
KFR1 210827Z 21009KT 16/09 A3019 RMK A01 T01550086  RH  063%=      5-min Rain = 0
KFR1 210828Z 21007KT 16/09 A3019 RMK A01 T01550086  RH  063%=      5-min Rain = 0
KFR1 210829Z 21007KT 16/09 A3019 RMK A01 T01550086  RH  063%=      5-min Rain = 0
KFR1 210830Z 22007KT 15/09 A3019 RMK A01 T01540085  RH  063%=      5-min Rain = 0
KFR1 210831Z 22006KT 15/09 A3019 RMK A01 T01540086  RH  063%=      5-min Rain = 0
KFR1 210832Z 21006KT 15/09 A3019 RMK A01 T01540086  RH  064%=      5-min Rain = 0
KFR1 210833Z 22006KT 15/09 A3019 RMK A01 T01540086  RH  064%=      5-min Rain = 0
KFR1 210834Z 22006KT 15/09 A3019 RMK A01 T01530085  RH  064%=      5-min Rain = 0
KFR1 210835Z 22006KT 15/09 A3019 RMK A01 T01530085  RH  064%=      5-min Rain = 0
KFR1 210836Z 21005KT 15/09 A3019 RMK A01 T01530085  RH  064%=      5-min Rain = 0
KFR1 210837Z 23005KT 15/09 A3019 RMK A01 T01530085  RH  064%=      5-min Rain = 0
KFR1 210838Z 23004KT 15/09 A3019 RMK A01 T01520085  RH  064%=      5-min Rain = 0
KFR1 210839Z 22005KT 15/09 A3019 RMK A01 T01510085  RH  064%=      5-min Rain = 0
KFR1 210840Z 23004KT 15/08 A3019 RMK A01 T01500084  RH  065%=      5-min Rain = 0
KFR1 210841Z 22004KT 15/08 A3019 RMK A01 T01500084  RH  065%=      5-min Rain = 0
KFR1 210842Z 23004KT 15/08 A3019 RMK A01 T01490084  RH  065%=      5-min Rain = 0
KFR1 210843Z 23003KT 15/08 A3019 RMK A01 T01500084  RH  065%=      5-min Rain = 0
KFR1 210844Z 23004KT 15/08 A3019 RMK A01 T01490084  RH  065%=      5-min Rain = 0
KFR1 210845Z 22003KT 15/09 A3019 RMK A01 T01490085  RH  065%=      5-min Rain = 0
KFR1 210846Z 19004KT 15/08 A3019 RMK A01 T01490084  RH  065%=      5-min Rain = 0
KFR1 210847Z 23003KT 15/09 A3019 RMK A01 T01500085  RH  065%=      5-min Rain = 0
KFR1 210848Z 21003KT 15/08 A3019 RMK A01 T01490084  RH  065%=      5-min Rain = 0
KFR1 210849Z 23002KT 15/08 A3019 RMK A01 T01490084  RH  065%=      5-min Rain = 0
KFR1 210850Z 22002KT 15/08 A3019 RMK A01 T01490084  RH  065%=      5-min Rain = 0
KFR1 210851Z 21004KT 15/08 A3019 RMK A01 T01480084  RH  065%=      5-min Rain = 0
KFR1 210852Z 21003KT 15/08 A302 RMK A01 T01480084  RH  065%=      5-min Rain = 0
KFR1 210853Z 21003KT 15/08 A302 RMK A01 T01480084  RH  065%=      5-min Rain = 0
KFR1 210854Z 24002KT 15/08 A302 RMK A01 T01480084  RH  065%=      5-min Rain = 0
KFR1 210855Z 21003KT 15/08 A302 RMK A01 T01480084  RH  065%=      5-min Rain = 0
KFR1 210856Z 22003KT 15/08 A302 RMK A01 T01480084  RH  066%=      5-min Rain = 0
KFR1 210857Z 21002KT 15/08 A302 RMK A01 T01480084  RH  065%=      5-min Rain = 0
KFR1 210858Z 20002KT 15/08 A302 RMK A01 T01470084  RH  066%=      5-min Rain = 0
KFR1 210859Z 22002KT 15/08 A302 RMK A01 T01470084  RH  066%=      5-min Rain = 0
KFR1 210900Z 21004KT 15/08 A302 RMK A01 T01460084  RH  066%=      5-min Rain = 0
KFR1 210901Z 21003KT 15/08 A302 RMK A01 T01460084  RH  066%=      5-min Rain = 0
KFR1 210902Z 21003KT 15/08 A302 RMK A01 T01460084  RH  066%=      5-min Rain = 0
KFR1 210903Z 22003KT 15/08 A302 RMK A01 T01460083  RH  066%=      5-min Rain = 0
KFR1 210904Z 21003KT 15/08 A302 RMK A01 T01450083  RH  066%=      5-min Rain = 0
KFR1 210905Z 21003KT 15/08 A302 RMK A01 T01450084  RH  066%=      5-min Rain = 0
KFR1 210906Z 21003KT 15/08 A302 RMK A01 T01450083  RH  066%=      5-min Rain = 0
KFR1 210907Z 21003KT 15/08 A302 RMK A01 T01450084  RH  067%=      5-min Rain = 0
KFR1 210908Z 21003KT 14/08 A3019 RMK A01 T01440084  RH  067%=      5-min Rain = 0
KFR1 210909Z 22003KT 14/08 A3019 RMK A01 T01440083  RH  067%=      5-min Rain = 0
KFR1 210910Z 23003KT 14/08 A3019 RMK A01 T01440084  RH  067%=      5-min Rain = 0
KFR1 210911Z 22002KT 14/08 A3019 RMK A01 T01430083  RH  067%=      5-min Rain = 0
KFR1 210912Z 23003KT 14/08 A3019 RMK A01 T01420083  RH  067%=      5-min Rain = 0
KFR1 210913Z 23004KT 14/08 A3019 RMK A01 T01420083  RH  067%=      5-min Rain = 0
KFR1 210914Z 23003KT 14/08 A3019 RMK A01 T01420083  RH  067%=      5-min Rain = 0
KFR1 210915Z 23003KT 14/08 A302 RMK A01 T01420083  RH  067%=      5-min Rain = 0
KFR1 210916Z 23003KT 14/08 A302 RMK A01 T01420083  RH  067%=      5-min Rain = 0
KFR1 210917Z 21003KT 14/08 A302 RMK A01 T01420083  RH  067%=      5-min Rain = 0
KFR1 210918Z 22004KT 14/08 A302 RMK A01 T01420083  RH  068%=      5-min Rain = 0
KFR1 210919Z 22005KT 14/08 A3019 RMK A01 T01420083  RH  068%=      5-min Rain = 0
KFR1 210920Z 22004KT 14/08 A3019 RMK A01 T01420083  RH  068%=      5-min Rain = 0
KFR1 210921Z 21005KT 14/08 A3019 RMK A01 T01430083  RH  067%=      5-min Rain = 0
KFR1 210922Z 21005KT 14/08 A3019 RMK A01 T01430083  RH  067%=      5-min Rain = 0
KFR1 210923Z 22005KT 14/08 A302 RMK A01 T01420083  RH  068%=      5-min Rain = 0
KFR1 210924Z 21004KT 14/08 A302 RMK A01 T01420083  RH  068%=      5-min Rain = 0
KFR1 210925Z 21004KT 14/08 A302 RMK A01 T01420083  RH  068%=      5-min Rain = 0
KFR1 210926Z 22005KT 14/08 A302 RMK A01 T01430083  RH  067%=      5-min Rain = 0
KFR1 210927Z 22005KT 14/08 A302 RMK A01 T01430083  RH  067%=      5-min Rain = 0
KFR1 210928Z 22005KT 14/08 A302 RMK A01 T01420083  RH  067%=      5-min Rain = 0
KFR1 210929Z 21004KT 14/08 A302 RMK A01 T01420083  RH  068%=      5-min Rain = 0
KFR1 210930Z 21004KT 14/08 A302 RMK A01 T01410082  RH  068%=      5-min Rain = 0
KFR1 210931Z 21005KT 14/08 A302 RMK A01 T01400083  RH  068%=      5-min Rain = 0
KFR1 210932Z 22004KT 14/08 A302 RMK A01 T01410083  RH  068%=      5-min Rain = 0
KFR1 210933Z 22004KT 14/08 A302 RMK A01 T01410082  RH  068%=      5-min Rain = 0
KFR1 210934Z 22004KT 14/08 A302 RMK A01 T01400083  RH  068%=      5-min Rain = 0
KFR1 210935Z 23003KT 14/08 A302 RMK A01 T01390082  RH  069%=      5-min Rain = 0
KFR1 210936Z 23003KT 14/08 A302 RMK A01 T01390083  RH  069%=      5-min Rain = 0
KFR1 210937Z 22003KT 14/08 A302 RMK A01 T01390082  RH  069%=      5-min Rain = 0
KFR1 210938Z 23003KT 14/08 A302 RMK A01 T01390082  RH  069%=      5-min Rain = 0
KFR1 210939Z 23003KT 14/08 A302 RMK A01 T01380082  RH  069%=      5-min Rain = 0
KFR1 210940Z 24004KT 14/08 A302 RMK A01 T01390082  RH  069%=      5-min Rain = 0
KFR1 210941Z 24004KT 14/08 A302 RMK A01 T01380082  RH  069%=      5-min Rain = 0
KFR1 210942Z 23004KT 14/08 A302 RMK A01 T01380082  RH  069%=      5-min Rain = 0
KFR1 210943Z 22004KT 14/08 A302 RMK A01 T01390082  RH  068%=      5-min Rain = 0
KFR1 210944Z 23004KT 14/08 A302 RMK A01 T01380082  RH  069%=      5-min Rain = 0
KFR1 210945Z 22004KT 14/08 A302 RMK A01 T01380082  RH  069%=      5-min Rain = 0
KFR1 210946Z 22004KT 14/08 A302 RMK A01 T01380082  RH  069%=      5-min Rain = 0
KFR1 210947Z 23004KT 14/08 A302 RMK A01 T01380082  RH  069%=      5-min Rain = 0
KFR1 210948Z 23004KT 14/08 A302 RMK A01 T01380082  RH  069%=      5-min Rain = 0
KFR1 210949Z 23004KT 14/08 A302 RMK A01 T01370082  RH  069%=      5-min Rain = 0
KFR1 210950Z 23004KT 14/08 A302 RMK A01 T01370082  RH  069%=      5-min Rain = 0
KFR1 210951Z 24004KT 14/08 A302 RMK A01 T01360082  RH  069%=      5-min Rain = 0
KFR1 210952Z 23004KT 14/08 A302 RMK A01 T01370082  RH  069%=      5-min Rain = 0
KFR1 210953Z 23005KT 14/08 A302 RMK A01 T01360081  RH  069%=      5-min Rain = 0
KFR1 210954Z 24004KT 14/08 A302 RMK A01 T01360082  RH  070%=      5-min Rain = 0
KFR1 210955Z 24003KT 14/08 A302 RMK A01 T01370082  RH  069%=      5-min Rain = 0
KFR1 210956Z 24003KT 14/08 A302 RMK A01 T01370082  RH  069%=      5-min Rain = 0
KFR1 210957Z 24003KT 14/08 A302 RMK A01 T01370082  RH  069%=      5-min Rain = 0
KFR1 210958Z 25003KT 14/08 A302 RMK A01 T01360082  RH  070%=      5-min Rain = 0
KFR1 210959Z 25003KT 14/08 A302 RMK A01 T01360082  RH  070%=      5-min Rain = 0
KFR1 211000Z 24003KT 14/08 A302 RMK A01 T01350082  RH  070%=      5-min Rain = 0
KFR1 211001Z 24002KT 14/08 A302 RMK A01 T01350081  RH  070%=      5-min Rain = 0
KFR1 211002Z 24002KT 14/08 A302 RMK A01 T01350081  RH  070%=      5-min Rain = 0
KFR1 211003Z 24002KT 13/08 A302 RMK A01 T01340082  RH  071%=      5-min Rain = 0
KFR1 211004Z 24002KT 13/08 A302 RMK A01 T01340082  RH  071%=      5-min Rain = 0
KFR1 211005Z 24002KT 13/08 A302 RMK A01 T01340082  RH  071%=      5-min Rain = 0
KFR1 211006Z 24002KT 13/08 A302 RMK A01 T01330082  RH  071%=      5-min Rain = 0
KFR1 211007Z 24003KT 13/08 A302 RMK A01 T01330082  RH  071%=      5-min Rain = 0
KFR1 211008Z 24003KT 13/08 A302 RMK A01 T01330082  RH  071%=      5-min Rain = 0
KFR1 211009Z 23003KT 13/08 A302 RMK A01 T01330081  RH  071%=      5-min Rain = 0
KFR1 211010Z 23002KT 13/08 A302 RMK A01 T01320081  RH  071%=      5-min Rain = 0
KFR1 211011Z 23002KT 13/08 A302 RMK A01 T01320082  RH  072%=      5-min Rain = 0
KFR1 211012Z 22003KT 13/08 A3021 RMK A01 T01320082  RH  072%=      5-min Rain = 0
KFR1 211013Z 22003KT 13/08 A3021 RMK A01 T01320082  RH  072%=      5-min Rain = 0
KFR1 211014Z 23003KT 13/08 A3021 RMK A01 T01310081  RH  072%=      5-min Rain = 0
KFR1 211015Z 22002KT 13/08 A3021 RMK A01 T01310082  RH  072%=      5-min Rain = 0
KFR1 211016Z 22002KT 13/08 A3021 RMK A01 T01310082  RH  072%=      5-min Rain = 0
KFR1 211017Z 23004KT 13/08 A3021 RMK A01 T01310082  RH  072%=      5-min Rain = 0
KFR1 211018Z 23003KT 13/08 A3021 RMK A01 T01310081  RH  072%=      5-min Rain = 0
KFR1 211019Z 22003KT 13/08 A3021 RMK A01 T01320082  RH  072%=      5-min Rain = 0
KFR1 211020Z 21004KT 13/08 A3021 RMK A01 T01310082  RH  072%=      5-min Rain = 0
KFR1 211021Z 21003KT 13/08 A3021 RMK A01 T01310082  RH  072%=      5-min Rain = 0
KFR1 211022Z 21003KT 13/08 A3021 RMK A01 T01310082  RH  072%=      5-min Rain = 0
KFR1 211023Z 21004KT 13/08 A3021 RMK A01 T01310082  RH  072%=      5-min Rain = 0
KFR1 211024Z 21003KT 13/08 A3021 RMK A01 T01310081  RH  072%=      5-min Rain = 0
KFR1 211025Z 21004KT 13/08 A3021 RMK A01 T01300081  RH  072%=      5-min Rain = 0
KFR1 211026Z 22003KT 13/08 A3021 RMK A01 T01300081  RH  072%=      5-min Rain = 0
KFR1 211027Z 21004KT 13/08 A3021 RMK A01 T01300081  RH  072%=      5-min Rain = 0
KFR1 211028Z 22003KT 13/08 A3021 RMK A01 T01290082  RH  073%=      5-min Rain = 0
KFR1 211029Z 22003KT 13/08 A3021 RMK A01 T01290082  RH  073%=      5-min Rain = 0
KFR1 211030Z 23003KT 13/08 A3021 RMK A01 T01290082  RH  073%=      5-min Rain = 0
KFR1 211031Z 23003KT 13/08 A3021 RMK A01 T01290082  RH  073%=      5-min Rain = 0
KFR1 211032Z 23003KT 13/08 A3021 RMK A01 T01290082  RH  073%=      5-min Rain = 0
KFR1 211033Z 23003KT 13/08 A3021 RMK A01 T01280082  RH  073%=      5-min Rain = 0
KFR1 211034Z 23004KT 13/08 A3021 RMK A01 T01280082  RH  073%=      5-min Rain = 0
KFR1 211035Z 23004KT 13/08 A3021 RMK A01 T01280081  RH  073%=      5-min Rain = 0
KFR1 211036Z 23004KT 13/08 A3021 RMK A01 T01270081  RH  074%=      5-min Rain = 0
KFR1 211037Z 22004KT 13/08 A3021 RMK A01 T01260081  RH  074%=      5-min Rain = 0
KFR1 211038Z 22004KT 13/08 A3021 RMK A01 T01260081  RH  074%=      5-min Rain = 0
KFR1 211039Z 22004KT 13/08 A3021 RMK A01 T01260081  RH  074%=      5-min Rain = 0
KFR1 211040Z 21004KT 13/08 A3021 RMK A01 T01260082  RH  074%=      5-min Rain = 0
KFR1 211041Z 22003KT 13/08 A3021 RMK A01 T01260082  RH  074%=      5-min Rain = 0
KFR1 211042Z 21004KT 13/08 A3021 RMK A01 T01270082  RH  074%=      5-min Rain = 0
KFR1 211043Z 21005KT 13/08 A3021 RMK A01 T01270082  RH  074%=      5-min Rain = 0
KFR1 211044Z 21004KT 13/08 A3021 RMK A01 T01280082  RH  074%=      5-min Rain = 0
KFR1 211045Z 21005KT 13/08 A3021 RMK A01 T01280082  RH  074%=      5-min Rain = 0
KFR1 211046Z 21004KT 13/08 A3021 RMK A01 T01270082  RH  074%=      5-min Rain = 0
KFR1 211047Z 21004KT 13/08 A3021 RMK A01 T01270082  RH  074%=      5-min Rain = 0
KFR1 211048Z 21004KT 13/08 A3021 RMK A01 T01260081  RH  074%=      5-min Rain = 0
KFR1 211049Z 21004KT 13/08 A3021 RMK A01 T01260082  RH  074%=      5-min Rain = 0
KFR1 211050Z 21005KT 13/08 A3021 RMK A01 T01260081  RH  074%=      5-min Rain = 0
KFR1 211051Z 21004KT 13/08 A3021 RMK A01 T01260082  RH  074%=      5-min Rain = 0
KFR1 211052Z 21004KT 13/08 A3021 RMK A01 T01260082  RH  074%=      5-min Rain = 0
KFR1 211053Z 21004KT 13/08 A3021 RMK A01 T01260082  RH  075%=      5-min Rain = 0
KFR1 211054Z 21004KT 13/08 A3021 RMK A01 T01260082  RH  075%=      5-min Rain = 0
KFR1 211055Z 21004KT 13/08 A3021 RMK A01 T01260082  RH  075%=      5-min Rain = 0
KFR1 211056Z 21004KT 13/08 A3021 RMK A01 T01260082  RH  075%=      5-min Rain = 0
KFR1 211057Z 21004KT 13/08 A3021 RMK A01 T01260082  RH  074%=      5-min Rain = 0
KFR1 211058Z 21004KT 13/08 A3021 RMK A01 T01260082  RH  074%=      5-min Rain = 0
KFR1 211059Z 21003KT 13/08 A3021 RMK A01 T01260082  RH  075%=      5-min Rain = 0
KFR1 211100Z 21003KT 13/08 A3021 RMK A01 T01260082  RH  075%=      5-min Rain = 0
KFR1 211101Z 21004KT 13/08 A302 RMK A01 T01260082  RH  075%=      5-min Rain = 0
KFR1 211102Z 21003KT 13/08 A302 RMK A01 T01260082  RH  074%=      5-min Rain = 0
KFR1 211103Z 20003KT 13/08 A302 RMK A01 T01260082  RH  074%=      5-min Rain = 0
KFR1 211104Z 21003KT 13/08 A302 RMK A01 T01260082  RH  074%=      5-min Rain = 0
KFR1 211105Z 21004KT 13/08 A302 RMK A01 T01260082  RH  074%=      5-min Rain = 0
KFR1 211106Z 21004KT 13/08 A302 RMK A01 T01260082  RH  075%=      5-min Rain = 0
KFR1 211107Z 21004KT 13/08 A302 RMK A01 T01250082  RH  075%=      5-min Rain = 0
KFR1 211108Z 22004KT 13/08 A302 RMK A01 T01250082  RH  075%=      5-min Rain = 0
KFR1 211109Z 22004KT 13/08 A302 RMK A01 T01250082  RH  075%=      5-min Rain = 0
KFR1 211110Z 22004KT 12/08 A302 RMK A01 T01240082  RH  075%=      5-min Rain = 0
KFR1 211111Z 21004KT 12/08 A302 RMK A01 T01240082  RH  075%=      5-min Rain = 0
KFR1 211112Z 21004KT 12/08 A302 RMK A01 T01240082  RH  075%=      5-min Rain = 0
KFR1 211113Z 21004KT 12/08 A302 RMK A01 T01240082  RH  076%=      5-min Rain = 0
KFR1 211114Z 21004KT 12/08 A302 RMK A01 T01240082  RH  076%=      5-min Rain = 0
KFR1 211115Z 21004KT 12/08 A302 RMK A01 T01230082  RH  076%=      5-min Rain = 0
KFR1 211116Z 21005KT 12/08 A302 RMK A01 T01240082  RH  076%=      5-min Rain = 0
KFR1 211117Z 22005KT 12/08 A302 RMK A01 T01240082  RH  076%=      5-min Rain = 0
KFR1 211118Z 21005KT 12/08 A302 RMK A01 T01230082  RH  076%=      5-min Rain = 0
KFR1 211119Z 21004KT 12/08 A302 RMK A01 T01230082  RH  076%=      5-min Rain = 0
KFR1 211120Z 21004KT 12/08 A302 RMK A01 T01230082  RH  076%=      5-min Rain = 0
KFR1 211121Z 21004KT 12/08 A302 RMK A01 T01230082  RH  076%=      5-min Rain = 0
KFR1 211122Z 21005KT 12/08 A3021 RMK A01 T01220082  RH  076%=      5-min Rain = 0
KFR1 211123Z 22005KT 12/08 A3021 RMK A01 T01220082  RH  077%=      5-min Rain = 0
KFR1 211124Z 22005KT 12/08 A3021 RMK A01 T01220082  RH  076%=      5-min Rain = 0
KFR1 211125Z 22005KT 12/08 A3021 RMK A01 T01230082  RH  076%=      5-min Rain = 0
KFR1 211126Z 22005KT 12/08 A302 RMK A01 T01230083  RH  076%=      5-min Rain = 0
KFR1 211127Z 22005KT 12/08 A302 RMK A01 T01230083  RH  077%=      5-min Rain = 0
KFR1 211128Z 22005KT 12/08 A302 RMK A01 T01230083  RH  076%=      5-min Rain = 0
KFR1 211129Z 22006KT 12/08 A3021 RMK A01 T01230082  RH  076%=      5-min Rain = 0
KFR1 211130Z 22006KT 12/08 A3021 RMK A01 T01230082  RH  076%=      5-min Rain = 0
KFR1 211131Z 22006KT 12/08 A3021 RMK A01 T01230083  RH  076%=      5-min Rain = 0
KFR1 211132Z 22006KT 12/08 A3021 RMK A01 T01240083  RH  076%=      5-min Rain = 0
KFR1 211133Z 21006KT 13/08 A3021 RMK A01 T01250083  RH  076%=      5-min Rain = 0
KFR1 211134Z 22006KT 13/08 A3021 RMK A01 T01250083  RH  075%=      5-min Rain = 0
KFR1 211135Z 22006KT 13/08 A3021 RMK A01 T01250083  RH  075%=      5-min Rain = 0
KFR1 211136Z 22006KT 13/08 A3021 RMK A01 T01250083  RH  075%=      5-min Rain = 0
KFR1 211137Z 21006KT 13/08 A3021 RMK A01 T01250083  RH  075%=      5-min Rain = 0
KFR1 211138Z 22006KT 13/08 A3021 RMK A01 T01250083  RH  075%=      5-min Rain = 0
KFR1 211139Z 22006KT 13/08 A3021 RMK A01 T01260083  RH  075%=      5-min Rain = 0
KFR1 211140Z 22005KT 13/08 A3021 RMK A01 T01260083  RH  075%=      5-min Rain = 0
KFR1 211141Z 21005KT 13/08 A3021 RMK A01 T01260083  RH  075%=      5-min Rain = 0
KFR1 211142Z 21005KT 13/08 A3021 RMK A01 T01250083  RH  075%=      5-min Rain = 0
KFR1 211143Z 21005KT 13/08 A3021 RMK A01 T01250083  RH  076%=      5-min Rain = 0
KFR1 211144Z 21005KT 12/08 A3021 RMK A01 T01240082  RH  076%=      5-min Rain = 0
KFR1 211145Z 22005KT 12/08 A3021 RMK A01 T01240083  RH  076%=      5-min Rain = 0
KFR1 211146Z 21005KT 12/08 A3021 RMK A01 T01240083  RH  076%=      5-min Rain = 0
KFR1 211147Z 21005KT 12/08 A3021 RMK A01 T01240083  RH  076%=      5-min Rain = 0
KFR1 211148Z 21005KT 12/08 A3021 RMK A01 T01240083  RH  076%=      5-min Rain = 0
KFR1 211149Z 21005KT 12/08 A3021 RMK A01 T01240083  RH  076%=      5-min Rain = 0
KFR1 211150Z 21005KT 12/08 A3021 RMK A01 T01230082  RH  076%=      5-min Rain = 0
KFR1 211151Z 21005KT 12/08 A3021 RMK A01 T01230082  RH  076%=      5-min Rain = 0
KFR1 211152Z 21005KT 12/08 A3021 RMK A01 T01230083  RH  076%=      5-min Rain = 0
KFR1 211153Z 21005KT 12/08 A3021 RMK A01 T01230083  RH  076%=      5-min Rain = 0
KFR1 211154Z 21005KT 12/08 A3021 RMK A01 T01220082  RH  076%=      5-min Rain = 0
KFR1 211155Z 22004KT 12/08 A3021 RMK A01 T01220082  RH  077%=      5-min Rain = 0
KFR1 211156Z 22005KT 12/08 A3021 RMK A01 T01210082  RH  077%=      5-min Rain = 0
KFR1 211157Z 22004KT 12/08 A3021 RMK A01 T01210082  RH  077%=      5-min Rain = 0
KFR1 211158Z 22004KT 12/08 A3021 RMK A01 T01210082  RH  077%=      5-min Rain = 0
KFR1 211159Z 22004KT 12/08 A3021 RMK A01 T01210082  RH  077%=      5-min Rain = 0
KFR1 211200Z 22004KT 12/08 A3021 RMK A01 T01210082  RH  077%=      5-min Rain = 0
KFR1 211201Z 22004KT 12/08 A3021 RMK A01 T01200081  RH  077%=      5-min Rain = 0
KFR1 211202Z 22004KT 12/08 A3021 RMK A01 T01190081  RH  078%=      5-min Rain = 0
KFR1 211203Z 22004KT 12/08 A3021 RMK A01 T01190082  RH  078%=      5-min Rain = 0
KFR1 211204Z 22004KT 12/08 A3021 RMK A01 T01190081  RH  078%=      5-min Rain = 0
KFR1 211205Z 22004KT 12/08 A3021 RMK A01 T01180081  RH  078%=      5-min Rain = 0
KFR1 211206Z 22004KT 12/08 A3021 RMK A01 T01180082  RH  078%=      5-min Rain = 0
KFR1 211207Z 22004KT 12/08 A3022 RMK A01 T01190082  RH  078%=      5-min Rain = 0
KFR1 211208Z 22004KT 12/08 A3022 RMK A01 T01190081  RH  078%=      5-min Rain = 0
KFR1 211209Z 22004KT 12/08 A3022 RMK A01 T01190082  RH  078%=      5-min Rain = 0
KFR1 211210Z 22004KT 12/08 A3022 RMK A01 T01180081  RH  078%=      5-min Rain = 0
KFR1 211211Z 22004KT 12/08 A3022 RMK A01 T01180082  RH  078%=      5-min Rain = 0
KFR1 211212Z 22003KT 12/08 A3022 RMK A01 T01180082  RH  078%=      5-min Rain = 0
KFR1 211213Z 22003KT 12/08 A3022 RMK A01 T01180082  RH  078%=      5-min Rain = 0
KFR1 211214Z 22004KT 12/08 A3022 RMK A01 T01180082  RH  078%=      5-min Rain = 0
KFR1 211215Z 23004KT 12/08 A3022 RMK A01 T01180081  RH  078%=      5-min Rain = 0
KFR1 211216Z 22004KT 12/08 A3022 RMK A01 T01180082  RH  078%=      5-min Rain = 0
KFR1 211217Z 22003KT 12/08 A3022 RMK A01 T01180081  RH  078%=      5-min Rain = 0
KFR1 211218Z 23003KT 12/08 A3022 RMK A01 T01180082  RH  078%=      5-min Rain = 0
KFR1 211219Z 23003KT 12/08 A3022 RMK A01 T01180082  RH  078%=      5-min Rain = 0
KFR1 211220Z 23004KT 12/08 A3022 RMK A01 T01180082  RH  078%=      5-min Rain = 0
KFR1 211221Z 23004KT 12/08 A3022 RMK A01 T01180082  RH  078%=      5-min Rain = 0
KFR1 211222Z 23004KT 12/08 A3022 RMK A01 T01180081  RH  078%=      5-min Rain = 0
KFR1 211223Z 23005KT 12/08 A3022 RMK A01 T01170081  RH  078%=      5-min Rain = 0
KFR1 211224Z 23004KT 12/08 A3022 RMK A01 T01180081  RH  078%=      5-min Rain = 0
KFR1 211225Z 22004KT 12/08 A3022 RMK A01 T01180082  RH  078%=      5-min Rain = 0
KFR1 211226Z 23003KT 12/08 A3022 RMK A01 T01180081  RH  078%=      5-min Rain = 0
KFR1 211227Z 22004KT 12/08 A3022 RMK A01 T01180082  RH  078%=      5-min Rain = 0
KFR1 211228Z 23003KT 12/08 A3022 RMK A01 T01180082  RH  078%=      5-min Rain = 0
KFR1 211229Z 23004KT 12/08 A3022 RMK A01 T01170081  RH  078%=      5-min Rain = 0
KFR1 211230Z 23004KT 12/08 A3022 RMK A01 T01170081  RH  079%=      5-min Rain = 0
KFR1 211231Z 23004KT 12/08 A3022 RMK A01 T01170081  RH  079%=      5-min Rain = 0
KFR1 211232Z 23003KT 12/08 A3022 RMK A01 T01170081  RH  079%=      5-min Rain = 0
KFR1 211233Z 24003KT 12/08 A3022 RMK A01 T01170081  RH  079%=      5-min Rain = 0
KFR1 211234Z 24004KT 12/08 A3022 RMK A01 T01160081  RH  079%=      5-min Rain = 0
KFR1 211235Z 24004KT 12/08 A3022 RMK A01 T01160081  RH  079%=      5-min Rain = 0
KFR1 211236Z 23003KT 12/08 A3022 RMK A01 T01160081  RH  079%=      5-min Rain = 0
KFR1 211237Z 23003KT 12/08 A3022 RMK A01 T01150081  RH  079%=      5-min Rain = 0
KFR1 211238Z 23004KT 12/08 A3022 RMK A01 T01150081  RH  079%=      5-min Rain = 0
KFR1 211239Z 24004KT 12/08 A3022 RMK A01 T01150081  RH  079%=      5-min Rain = 0
KFR1 211240Z 24004KT 12/08 A3022 RMK A01 T01150081  RH  079%=      5-min Rain = 0
KFR1 211241Z 23004KT 12/08 A3023 RMK A01 T01150081  RH  079%=      5-min Rain = 0
KFR1 211242Z 23004KT 11/08 A3023 RMK A01 T01140080  RH  080%=      5-min Rain = 0
KFR1 211243Z 23004KT 11/08 A3023 RMK A01 T01140081  RH  080%=      5-min Rain = 0
KFR1 211244Z 23005KT 11/08 A3023 RMK A01 T01140081  RH  080%=      5-min Rain = 0
KFR1 211245Z 23005KT 11/08 A3023 RMK A01 T01140081  RH  080%=      5-min Rain = 0
KFR1 211246Z 23004KT 12/08 A3023 RMK A01 T01150081  RH  080%=      5-min Rain = 0
KFR1 211247Z 23005KT 11/08 A3023 RMK A01 T01140081  RH  080%=      5-min Rain = 0
KFR1 211248Z 23005KT 12/08 A3023 RMK A01 T01150081  RH  080%=      5-min Rain = 0
KFR1 211249Z 23005KT 12/08 A3023 RMK A01 T01150081  RH  080%=      5-min Rain = 0
KFR1 211250Z 23005KT 12/08 A3023 RMK A01 T01150081  RH  080%=      5-min Rain = 0
KFR1 211251Z 23005KT 12/08 A3023 RMK A01 T01150081  RH  080%=      5-min Rain = 0
KFR1 211252Z 23005KT 11/08 A3023 RMK A01 T01140081  RH  080%=      5-min Rain = 0
KFR1 211253Z 23005KT 12/08 A3023 RMK A01 T01150081  RH  080%=      5-min Rain = 0
KFR1 211254Z 22005KT 12/08 A3023 RMK A01 T01160081  RH  079%=      5-min Rain = 0
KFR1 211255Z 22005KT 12/08 A3023 RMK A01 T01160081  RH  079%=      5-min Rain = 0
KFR1 211256Z 22005KT 12/08 A3023 RMK A01 T01160082  RH  079%=      5-min Rain = 0
KFR1 211257Z 22005KT 12/08 A3023 RMK A01 T01170082  RH  079%=      5-min Rain = 0
KFR1 211258Z 22005KT 12/08 A3023 RMK A01 T01180082  RH  079%=      5-min Rain = 0
KFR1 211259Z 22005KT 12/08 A3023 RMK A01 T01170082  RH  079%=      5-min Rain = 0
KFR1 211300Z 22005KT 12/08 A3023 RMK A01 T01180082  RH  079%=      5-min Rain = 0
KFR1 211301Z 22005KT 12/08 A3023 RMK A01 T01180082  RH  079%=      5-min Rain = 0
KFR1 211302Z 22005KT 12/08 A3023 RMK A01 T01180082  RH  079%=      5-min Rain = 0
KFR1 211303Z 22005KT 12/08 A3023 RMK A01 T01180082  RH  078%=      5-min Rain = 0
KFR1 211304Z 22005KT 12/08 A3023 RMK A01 T01180082  RH  078%=      5-min Rain = 0
KFR1 211305Z 22005KT 12/08 A3023 RMK A01 T01190083  RH  078%=      5-min Rain = 0
KFR1 211306Z 22005KT 12/08 A3023 RMK A01 T01200083  RH  078%=      5-min Rain = 0
KFR1 211307Z 22005KT 12/08 A3023 RMK A01 T01210083  RH  077%=      5-min Rain = 0
KFR1 211308Z 22006KT 12/08 A3023 RMK A01 T01220083  RH  077%=      5-min Rain = 0
KFR1 211309Z 22006KT 12/08 A3023 RMK A01 T01220082  RH  077%=      5-min Rain = 0
KFR1 211310Z 22006KT 12/08 A3023 RMK A01 T01230083  RH  077%=      5-min Rain = 0
KFR1 211311Z 22007KT 12/08 A3023 RMK A01 T01230082  RH  076%=      5-min Rain = 0
KFR1 211312Z 22006KT 12/08 A3023 RMK A01 T01240083  RH  076%=      5-min Rain = 0
KFR1 211313Z 21007KT 12/08 A3023 RMK A01 T01240082  RH  076%=      5-min Rain = 0
KFR1 211314Z 21006KT 13/08 A3023 RMK A01 T01250083  RH  075%=      5-min Rain = 0
KFR1 211315Z 21007KT 13/08 A3023 RMK A01 T01250083  RH  075%=      5-min Rain = 0
KFR1 211316Z 21007KT 13/08 A3023 RMK A01 T01250083  RH  075%=      5-min Rain = 0
KFR1 211317Z 21007KT 13/08 A3023 RMK A01 T01260083  RH  075%=      5-min Rain = 0
KFR1 211318Z 21007KT 13/08 A3023 RMK A01 T01260082  RH  075%=      5-min Rain = 0
KFR1 211319Z 20007KT 13/08 A3023 RMK A01 T01260082  RH  075%=      5-min Rain = 0
KFR1 211320Z 20006KT 13/08 A3023 RMK A01 T01260083  RH  075%=      5-min Rain = 0
KFR1 211321Z 20007KT 13/08 A3023 RMK A01 T01260083  RH  075%=      5-min Rain = 0
KFR1 211322Z 20006KT 13/08 A3023 RMK A01 T01260082  RH  075%=      5-min Rain = 0
KFR1 211323Z 20008KT 13/08 A3023 RMK A01 T01260082  RH  075%=      5-min Rain = 0
KFR1 211324Z 20007KT 13/08 A3023 RMK A01 T01260082  RH  074%=      5-min Rain = 0
KFR1 211325Z 20007KT 13/08 A3023 RMK A01 T01260082  RH  074%=      5-min Rain = 0
KFR1 211326Z 21007KT 13/08 A3023 RMK A01 T01270082  RH  074%=      5-min Rain = 0
KFR1 211327Z 21007KT 13/08 A3024 RMK A01 T01270082  RH  074%=      5-min Rain = 0
KFR1 211328Z 20008KT 13/08 A3024 RMK A01 T01270082  RH  074%=      5-min Rain = 0
KFR1 211329Z 21007KT 13/08 A3024 RMK A01 T01280083  RH  074%=      5-min Rain = 0
KFR1 211330Z 20007KT 13/08 A3024 RMK A01 T01270082  RH  074%=      5-min Rain = 0
KFR1 211331Z 20008KT 13/08 A3024 RMK A01 T01280083  RH  074%=      5-min Rain = 0
KFR1 211332Z 20008KT 13/08 A3024 RMK A01 T01280082  RH  074%=      5-min Rain = 0
KFR1 211333Z 20008KT 13/08 A3024 RMK A01 T01290083  RH  074%=      5-min Rain = 0
KFR1 211334Z 20008KT 13/08 A3024 RMK A01 T01290083  RH  074%=      5-min Rain = 0
KFR1 211335Z 20007KT 13/08 A3024 RMK A01 T01290084  RH  074%=      5-min Rain = 0
KFR1 211336Z 20009KT 13/08 A3024 RMK A01 T01300083  RH  073%=      5-min Rain = 0
KFR1 211337Z 20008KT 13/08 A3024 RMK A01 T01300083  RH  073%=      5-min Rain = 0
KFR1 211338Z 20009KT 13/08 A3024 RMK A01 T01310083  RH  073%=      5-min Rain = 0
KFR1 211339Z 20007KT 13/08 A3024 RMK A01 T01320084  RH  072%=      5-min Rain = 0
KFR1 211340Z 20009KT 13/08 A3024 RMK A01 T01320083  RH  072%=      5-min Rain = 0
KFR1 211341Z 20007KT 13/08 A3024 RMK A01 T01320083  RH  072%=      5-min Rain = 0
KFR1 211342Z 20009KT 13/08 A3024 RMK A01 T01330084  RH  072%=      5-min Rain = 0
KFR1 211343Z 20009KT 13/08 A3024 RMK A01 T01330084  RH  072%=      5-min Rain = 0
KFR1 211344Z 20009KT 13/08 A3024 RMK A01 T01330083  RH  072%=      5-min Rain = 0
KFR1 211345Z 20008KT 13/08 A3024 RMK A01 T01340083  RH  071%=      5-min Rain = 0
KFR1 211346Z 20007KT 13/08 A3024 RMK A01 T01340084  RH  072%=      5-min Rain = 0
KFR1 211347Z 20008KT 14/08 A3024 RMK A01 T01350084  RH  071%=      5-min Rain = 0
KFR1 211348Z 20007KT 14/08 A3024 RMK A01 T01350084  RH  071%=      5-min Rain = 0
KFR1 211349Z 20007KT 14/08 A3024 RMK A01 T01360084  RH  071%=      5-min Rain = 0
KFR1 211350Z 20008KT 14/08 A3024 RMK A01 T01360084  RH  071%=      5-min Rain = 0
KFR1 211351Z 20008KT 14/08 A3024 RMK A01 T01370084  RH  070%=      5-min Rain = 0
KFR1 211352Z 21008KT 14/08 A3024 RMK A01 T01370084  RH  070%=      5-min Rain = 0
KFR1 211353Z 21006KT 14/08 A3024 RMK A01 T01380084  RH  070%=      5-min Rain = 0
KFR1 211354Z 20007KT 14/09 A3024 RMK A01 T01380085  RH  070%=      5-min Rain = 0
KFR1 211355Z 20008KT 14/09 A3024 RMK A01 T01390085  RH  070%=      5-min Rain = 0
KFR1 211356Z 20007KT 14/09 A3024 RMK A01 T01390085  RH  070%=      5-min Rain = 0
KFR1 211357Z 21007KT 14/09 A3024 RMK A01 T01400085  RH  069%=      5-min Rain = 0
KFR1 211358Z 20009KT 14/09 A3024 RMK A01 T01410085  RH  069%=      5-min Rain = 0
KFR1 211359Z 21009KT 14/09 A3024 RMK A01 T01410085  RH  069%=      5-min Rain = 0
KFR1 211400Z 21010KT 14/09 A3024 RMK A01 T01420085  RH  068%=      5-min Rain = 0
KFR1 211401Z 20010KT 14/08 A3024 RMK A01 T01420084  RH  068%=      5-min Rain = 0
KFR1 211402Z 21010KT 14/08 A3024 RMK A01 T01420084  RH  068%=      5-min Rain = 0
KFR1 211403Z 21008KT 14/08 A3024 RMK A01 T01430084  RH  068%=      5-min Rain = 0
KFR1 211404Z 21009KT 14/09 A3024 RMK A01 T01430085  RH  068%=      5-min Rain = 0
KFR1 211405Z 21011KT 14/09 A3024 RMK A01 T01440085  RH  067%=      5-min Rain = 0
KFR1 211406Z 21007KT 14/09 A3024 RMK A01 T01440085  RH  067%=      5-min Rain = 0
KFR1 211407Z 21007KT 15/09 A3024 RMK A01 T01450085  RH  067%=      5-min Rain = 0
KFR1 211408Z 21008KT 15/09 A3024 RMK A01 T01450085  RH  067%=      5-min Rain = 0
KFR1 211409Z 21008KT 15/09 A3024 RMK A01 T01460085  RH  067%=      5-min Rain = 0
KFR1 211410Z 22009KT 15/09 A3024 RMK A01 T01460085  RH  067%=      5-min Rain = 0
KFR1 211411Z 21010KT 15/09 A3024 RMK A01 T01470085  RH  066%=      5-min Rain = 0
KFR1 211412Z 21009KT 15/08 A3024 RMK A01 T01470084  RH  066%=      5-min Rain = 0
KFR1 211413Z 21009KT 15/09 A3024 RMK A01 T01470085  RH  066%=      5-min Rain = 0
KFR1 211414Z 21009KT 15/08 A3024 RMK A01 T01470084  RH  066%=      5-min Rain = 0
KFR1 211415Z 21010KT 15/09 A3024 RMK A01 T01480085  RH  066%=      5-min Rain = 0
KFR1 211416Z 22011KT 15/08 A3024 RMK A01 T01480084  RH  066%=      5-min Rain = 0
KFR1 211417Z 21009KT 15/08 A3024 RMK A01 T01480084  RH  066%=      5-min Rain = 0
KFR1 211418Z 21009KT 15/08 A3024 RMK A01 T01480084  RH  066%=      5-min Rain = 0
KFR1 211419Z 21007KT 15/09 A3024 RMK A01 T01490085  RH  066%=      5-min Rain = 0
KFR1 211420Z 21007KT 15/09 A3024 RMK A01 T01490086  RH  066%=      5-min Rain = 0
KFR1 211421Z 21008KT 15/09 A3024 RMK A01 T01500085  RH  065%=      5-min Rain = 0
KFR1 211422Z 22009KT 15/09 A3024 RMK A01 T01500085  RH  065%=      5-min Rain = 0
KFR1 211423Z 21007KT 15/09 A3024 RMK A01 T01500085  RH  065%=      5-min Rain = 0
KFR1 211424Z 21008KT 15/09 A3024 RMK A01 T01510086  RH  065%=      5-min Rain = 0
KFR1 211425Z 21008KT 15/09 A3024 RMK A01 T01520086  RH  065%=      5-min Rain = 0
KFR1 211426Z 21008KT 15/09 A3024 RMK A01 T01520086  RH  064%=      5-min Rain = 0
KFR1 211427Z 21007KT 15/09 A3024 RMK A01 T01530085  RH  064%=      5-min Rain = 0
KFR1 211428Z 22006KT 15/09 A3024 RMK A01 T01540086  RH  064%=      5-min Rain = 0
KFR1 211429Z 21006KT 15/09 A3024 RMK A01 T01540086  RH  064%=      5-min Rain = 0
KFR1 211430Z 20009KT 16/09 A3024 RMK A01 T01550086  RH  063%=      5-min Rain = 0
KFR1 211431Z 21007KT 16/09 A3024 RMK A01 T01560087  RH  063%=      5-min Rain = 0
KFR1 211432Z 21009KT 16/09 A3024 RMK A01 T01570087  RH  063%=      5-min Rain = 0
KFR1 211433Z 22009KT 16/09 A3024 RMK A01 T01580086  RH  062%=      5-min Rain = 0
KFR1 211434Z 21010KT 16/09 A3024 RMK A01 T01580086  RH  062%=      5-min Rain = 0
KFR1 211435Z 22011KT 16/09 A3024 RMK A01 T01570086  RH  062%=      5-min Rain = 0
KFR1 211436Z 22011KT 16/09 A3024 RMK A01 T01570086  RH  062%=      5-min Rain = 0
KFR1 211437Z 22009KT 16/09 A3024 RMK A01 T01580086  RH  062%=      5-min Rain = 0
KFR1 211438Z 21007KT 16/09 A3024 RMK A01 T01590086  RH  062%=      5-min Rain = 0
KFR1 211439Z 21007KT 16/09 A3024 RMK A01 T01590086  RH  062%=      5-min Rain = 0
KFR1 211440Z 22008KT 16/09 A3024 RMK A01 T01600087  RH  062%=      5-min Rain = 0
KFR1 211441Z 21011KT 16/09 A3024 RMK A01 T01620086  RH  061%=      5-min Rain = 0
KFR1 211442Z 21011KT 16/09 A3024 RMK A01 T01620085  RH  060%=      5-min Rain = 0
KFR1 211443Z 22009KT 16/09 A3024 RMK A01 T01610085  RH  061%=      5-min Rain = 0
KFR1 211444Z 23009KT 16/09 A3024 RMK A01 T01620085  RH  061%=      5-min Rain = 0
KFR1 211445Z 21010KT 16/09 A3024 RMK A01 T01630085  RH  060%=      5-min Rain = 0
KFR1 211446Z 21013KT 16/09 A3024 RMK A01 T01630085  RH  060%=      5-min Rain = 0
KFR1 211447Z 21010KT 16/09 A3024 RMK A01 T01640085  RH  060%=      5-min Rain = 0
KFR1 211448Z 22006G11KT 16/09 A3024 RMK A01 T01630085  RH  060%=      5-min Rain = 0
KFR1 211449Z 23005KT 16/09 A3024 RMK A01 T01630087  RH  061%=      5-min Rain = 0
KFR1 211450Z 24004KT 16/09 A3024 RMK A01 T01640090  RH  061%=      5-min Rain = 0
KFR1 211451Z 26004KT 17/09 A3024 RMK A01 T01650093  RH  063%=      5-min Rain = 0
KFR1 211452Z 25005KT 17/10 A3024 RMK A01 T01650095  RH  063%=      5-min Rain = 0
KFR1 211453Z 25005KT 17/10 A3024 RMK A01 T01650095  RH  063%=      5-min Rain = 0
KFR1 211454Z 25004KT 16/10 A3024 RMK A01 T01640098  RH  065%=      5-min Rain = 0
KFR1 211455Z 25004KT 16/10 A3024 RMK A01 T01620098  RH  066%=      5-min Rain = 0
KFR1 211456Z 25004KT 16/10 A3024 RMK A01 T01620095  RH  065%=      5-min Rain = 0
KFR1 211457Z 24005KT 16/10 A3024 RMK A01 T01630095  RH  064%=      5-min Rain = 0
KFR1 211458Z 24005KT 16/09 A3024 RMK A01 T01640090  RH  062%=      5-min Rain = 0
KFR1 211459Z 25005KT 17/09 A3024 RMK A01 T01650092  RH  062%=      5-min Rain = 0
KFR1 211500Z 25004KT 17/09 A3024 RMK A01 T01650094  RH  063%=      5-min Rain = 0
KFR1 211501Z 24005KT 17/09 A3024 RMK A01 T01650093  RH  062%=      5-min Rain = 0
KFR1 211502Z 24005KT 17/09 A3024 RMK A01 T01660094  RH  062%=      5-min Rain = 0
KFR1 211503Z 22004KT 17/09 A3024 RMK A01 T01670092  RH  061%=      5-min Rain = 0
KFR1 211504Z 22005KT 17/09 A3024 RMK A01 T01690091  RH  060%=      5-min Rain = 0
KFR1 211505Z 24007KT 17/09 A3024 RMK A01 T01710090  RH  059%=      5-min Rain = 0
KFR1 211506Z 23008KT 17/09 A3024 RMK A01 T01720089  RH  058%=      5-min Rain = 0
KFR1 211507Z 22008KT 17/09 A3024 RMK A01 T01720088  RH  057%=      5-min Rain = 0
KFR1 211508Z 22007KT 17/09 A3024 RMK A01 T01710087  RH  057%=      5-min Rain = 0
KFR1 211509Z 26004KT 17/09 A3025 RMK A01 T01710091  RH  059%=      5-min Rain = 0
KFR1 211510Z 23007KT 17/09 A3025 RMK A01 T01710092  RH  060%=      5-min Rain = 0
KFR1 211511Z 24006KT 17/09 A3024 RMK A01 T01720089  RH  058%=      5-min Rain = 0
KFR1 211512Z 24008KT 17/09 A3025 RMK A01 T01730091  RH  058%=      5-min Rain = 0
KFR1 211513Z 23006KT 18/09 A3025 RMK A01 T01750090  RH  058%=      5-min Rain = 0
KFR1 211514Z 23006KT 18/09 A3025 RMK A01 T01770090  RH  057%=      5-min Rain = 0
KFR1 211515Z 23008KT 18/09 A3025 RMK A01 T01790090  RH  056%=      5-min Rain = 0
KFR1 211516Z 23010KT 18/09 A3025 RMK A01 T01790088  RH  055%=      5-min Rain = 0
KFR1 211517Z 24009KT 18/09 A3025 RMK A01 T01790088  RH  055%=      5-min Rain = 0
KFR1 211518Z 22009KT 18/09 A3025 RMK A01 T01780087  RH  055%=      5-min Rain = 0
KFR1 211519Z 23006KT 18/09 A3025 RMK A01 T01780087  RH  055%=      5-min Rain = 0
KFR1 211520Z 22007KT 18/09 A3025 RMK A01 T01770088  RH  056%=      5-min Rain = 0
KFR1 211521Z 23009KT 18/09 A3024 RMK A01 T01780088  RH  055%=      5-min Rain = 0
KFR1 211522Z 23005KT 18/10 A3025 RMK A01 T01780095  RH  059%=      5-min Rain = 0
KFR1 211523Z 25006KT 18/10 A3025 RMK A01 T01760097  RH  060%=      5-min Rain = 0
KFR1 211524Z 22007KT 17/09 A3025 RMK A01 T01740093  RH  059%=      5-min Rain = 0
KFR1 211525Z 22009KT 18/09 A3025 RMK A01 T01770088  RH  056%=      5-min Rain = 0
KFR1 211526Z 22010KT 18/09 A3024 RMK A01 T01790086  RH  055%=      5-min Rain = 0
KFR1 211527Z 23007KT 18/09 A3025 RMK A01 T01780087  RH  055%=      5-min Rain = 0
KFR1 211528Z 21008KT 18/09 A3025 RMK A01 T01790087  RH  055%=      5-min Rain = 0
KFR1 211529Z 24008KT 18/09 A3025 RMK A01 T01810092  RH  056%=      5-min Rain = 0
KFR1 211530Z 23008KT 18/09 A3025 RMK A01 T01820088  RH  054%=      5-min Rain = 0
KFR1 211531Z 23010KT 18/09 A3025 RMK A01 T01820088  RH  054%=      5-min Rain = 0
KFR1 211532Z 22010KT 18/09 A3025 RMK A01 T01830087  RH  053%=      5-min Rain = 0
KFR1 211533Z 21009KT 18/09 A3025 RMK A01 T01830087  RH  053%=      5-min Rain = 0
KFR1 211534Z 22011KT 18/09 A3025 RMK A01 T01830087  RH  053%=      5-min Rain = 0
KFR1 211535Z 22008KT 18/09 A3025 RMK A01 T01840087  RH  053%=      5-min Rain = 0
KFR1 211536Z 23009KT 19/09 A3025 RMK A01 T01850088  RH  053%=      5-min Rain = 0
KFR1 211537Z 23009KT 19/09 A3025 RMK A01 T01870087  RH  052%=      5-min Rain = 0
KFR1 211538Z 22007KT 19/09 A3025 RMK A01 T01870089  RH  053%=      5-min Rain = 0
KFR1 211539Z 22007KT 19/09 A3025 RMK A01 T01890090  RH  053%=      5-min Rain = 0
KFR1 211540Z 19005KT 19/09 A3025 RMK A01 T01900089  RH  052%=      5-min Rain = 0
KFR1 211541Z 21005KT 19/09 A3025 RMK A01 T01900089  RH  052%=      5-min Rain = 0
KFR1 211542Z 23007KT 19/09 A3025 RMK A01 T01910091  RH  052%=      5-min Rain = 0
KFR1 211543Z 21008KT 19/09 A3025 RMK A01 T01920090  RH  051%=      5-min Rain = 0
KFR1 211544Z 20008KT 19/09 A3025 RMK A01 T01930089  RH  051%=      5-min Rain = 0
KFR1 211545Z 21009KT 19/09 A3025 RMK A01 T01920089  RH  051%=      5-min Rain = 0
KFR1 211546Z 21008KT 19/09 A3025 RMK A01 T01920088  RH  051%=      5-min Rain = 0
KFR1 211547Z 20011KT 19/09 A3025 RMK A01 T01920088  RH  051%=      5-min Rain = 0
KFR1 211548Z 21008KT 19/09 A3025 RMK A01 T01920089  RH  051%=      5-min Rain = 0
KFR1 211549Z 22009KT 19/09 A3025 RMK A01 T01940089  RH  051%=      5-min Rain = 0
KFR1 211550Z 21008KT 19/09 A3025 RMK A01 T01930089  RH  051%=      5-min Rain = 0
KFR1 211551Z 21006KT 19/09 A3025 RMK A01 T01930089  RH  051%=      5-min Rain = 0
KFR1 211552Z 22006KT 19/09 A3025 RMK A01 T01920089  RH  051%=      5-min Rain = 0
KFR1 211553Z 23008KT 19/09 A3025 RMK A01 T01930090  RH  051%=      5-min Rain = 0
KFR1 211554Z 23009KT 20/09 A3025 RMK A01 T01960091  RH  051%=      5-min Rain = 0
KFR1 211555Z 24008KT 20/09 A3025 RMK A01 T01970090  RH  050%=      5-min Rain = 0
KFR1 211556Z 23007KT 20/09 A3025 RMK A01 T01980091  RH  050%=      5-min Rain = 0
KFR1 211557Z 23009KT 20/09 A3025 RMK A01 T01990090  RH  049%=      5-min Rain = 0
KFR1 211558Z 22006KT 20/09 A3025 RMK A01 T01980090  RH  050%=      5-min Rain = 0
KFR1 211559Z 22007KT 20/09 A3025 RMK A01 T01970091  RH  050%=      5-min Rain = 0
KFR1 211600Z 22005KT 20/09 A3025 RMK A01 T01990090  RH  050%=      5-min Rain = 0
KFR1 211601Z 24006KT 20/09 A3025 RMK A01 T02000092  RH  050%=      5-min Rain = 0
KFR1 211602Z 23009KT 20/09 A3025 RMK A01 T02010091  RH  049%=      5-min Rain = 0
KFR1 211603Z 24007KT 20/09 A3025 RMK A01 T02010091  RH  049%=      5-min Rain = 0
KFR1 211604Z 22008KT 20/09 A3025 RMK A01 T02010091  RH  049%=      5-min Rain = 0
KFR1 211605Z 22008KT 20/09 A3025 RMK A01 T02010091  RH  049%=      5-min Rain = 0
KFR1 211606Z 23006KT 20/09 A3025 RMK A01 T02010092  RH  049%=      5-min Rain = 0
KFR1 211607Z 25005KT 20/09 A3025 RMK A01 T02010092  RH  049%=      5-min Rain = 0
KFR1 211608Z 24008KT 20/09 A3025 RMK A01 T02020092  RH  049%=      5-min Rain = 0
KFR1 211609Z 23009KT 20/09 A3025 RMK A01 T02030091  RH  048%=      5-min Rain = 0
KFR1 211610Z 22007KT 20/09 A3025 RMK A01 T02030090  RH  048%=      5-min Rain = 0
KFR1 211611Z 23005KT 20/09 A3025 RMK A01 T02020091  RH  049%=      5-min Rain = 0
KFR1 211612Z 22004KT 20/09 A3025 RMK A01 T02020092  RH  049%=      5-min Rain = 0
KFR1 211613Z 20005KT 20/09 A3025 RMK A01 T02040092  RH  048%=      5-min Rain = 0
KFR1 211614Z 20006KT 21/09 A3025 RMK A01 T02050091  RH  048%=      5-min Rain = 0
KFR1 211615Z 20007KT 21/09 A3025 RMK A01 T02050092  RH  048%=      5-min Rain = 0
KFR1 211616Z 22006KT 21/09 A3024 RMK A01 T02060091  RH  048%=      5-min Rain = 0
KFR1 211617Z 19007KT 21/09 A3025 RMK A01 T02070093  RH  048%=      5-min Rain = 0
KFR1 211618Z 20005KT 21/09 A3024 RMK A01 T02090092  RH  047%=      5-min Rain = 0
KFR1 211619Z 22004KT 21/09 A3024 RMK A01 T02100092  RH  047%=      5-min Rain = 0
KFR1 211620Z 23006KT 21/09 A3024 RMK A01 T02100093  RH  047%=      5-min Rain = 0
KFR1 211621Z 21008KT 21/09 A3024 RMK A01 T02110092  RH  046%=      5-min Rain = 0
KFR1 211622Z 20007KT 21/09 A3024 RMK A01 T02100091  RH  047%=      5-min Rain = 0
KFR1 211623Z 19007KT 21/09 A3024 RMK A01 T02100091  RH  046%=      5-min Rain = 0
KFR1 211624Z 20007KT 21/09 A3024 RMK A01 T02100090  RH  046%=      5-min Rain = 0
KFR1 211625Z 19010KT 21/09 A3024 RMK A01 T02100091  RH  047%=      5-min Rain = 0
KFR1 211626Z 21008KT 21/09 A3024 RMK A01 T02110093  RH  047%=      5-min Rain = 0
KFR1 211627Z 22007KT 21/09 A3024 RMK A01 T02130092  RH  046%=      5-min Rain = 0
KFR1 211628Z 20007KT 21/09 A3024 RMK A01 T02130091  RH  046%=      5-min Rain = 0
KFR1 211629Z 19005KT 21/09 A3024 RMK A01 T02130093  RH  046%=      5-min Rain = 0
KFR1 211630Z 24006KT 22/10 A3024 RMK A01 T02160095  RH  046%=      5-min Rain = 0
KFR1 211631Z 23004KT 22/09 A3024 RMK A01 T02160092  RH  045%=      5-min Rain = 0
KFR1 211632Z 21005KT 22/09 A3024 RMK A01 T02150093  RH  046%=      5-min Rain = 0
KFR1 211633Z 22005KT 22/09 A3024 RMK A01 T02150093  RH  046%=      5-min Rain = 0
KFR1 211634Z 24005KT 22/09 A3024 RMK A01 T02170092  RH  045%=      5-min Rain = 0
KFR1 211635Z 25007KT 22/09 A3024 RMK A01 T02180094  RH  045%=      5-min Rain = 0
KFR1 211636Z 24005KT 22/09 A3024 RMK A01 T02190093  RH  045%=      5-min Rain = 0
KFR1 211637Z 25007KT 22/09 A3024 RMK A01 T02180093  RH  045%=      5-min Rain = 0
KFR1 211638Z 22009KT 22/09 A3024 RMK A01 T02170091  RH  045%=      5-min Rain = 0
KFR1 211639Z 22010KT 22/09 A3024 RMK A01 T02170090  RH  044%=      5-min Rain = 0
KFR1 211640Z 22009KT 22/09 A3024 RMK A01 T02170090  RH  044%=      5-min Rain = 0
KFR1 211641Z 21010KT 22/09 A3024 RMK A01 T02170090  RH  044%=      5-min Rain = 0
KFR1 211642Z 22009KT 22/09 A3024 RMK A01 T02180091  RH  044%=      5-min Rain = 0
KFR1 211643Z 21007KT 22/09 A3024 RMK A01 T02170091  RH  044%=      5-min Rain = 0
KFR1 211644Z 24006KT 22/09 A3024 RMK A01 T02170092  RH  045%=      5-min Rain = 0
KFR1 211645Z 25006KT 22/09 A3024 RMK A01 T02200093  RH  044%=      5-min Rain = 0
KFR1 211646Z 23005KT 22/09 A3024 RMK A01 T02210091  RH  043%=      5-min Rain = 0
KFR1 211647Z 21007KT 22/09 A3024 RMK A01 T02200093  RH  044%=      5-min Rain = 0
KFR1 211648Z 20009KT 22/09 A3023 RMK A01 T02220093  RH  044%=      5-min Rain = 0
KFR1 211649Z 20007KT 22/09 A3023 RMK A01 T02230091  RH  043%=      5-min Rain = 0
KFR1 211650Z 22006KT 22/09 A3023 RMK A01 T02220092  RH  043%=      5-min Rain = 0
KFR1 211651Z 19007KT 22/09 A3023 RMK A01 T02220091  RH  043%=      5-min Rain = 0
KFR1 211652Z 21008KT 22/09 A3023 RMK A01 T02230091  RH  043%=      5-min Rain = 0
KFR1 211653Z 20009KT 22/09 A3023 RMK A01 T02240091  RH  043%=      5-min Rain = 0
KFR1 211654Z 20010KT 22/09 A3023 RMK A01 T02240091  RH  043%=      5-min Rain = 0
KFR1 211655Z 21010KT 22/09 A3023 RMK A01 T02230090  RH  043%=      5-min Rain = 0
KFR1 211656Z 20006KT 22/09 A3023 RMK A01 T02220091  RH  043%=      5-min Rain = 0
KFR1 211657Z 21006KT 22/09 A3023 RMK A01 T02220091  RH  043%=      5-min Rain = 0
KFR1 211658Z 19005KT 22/09 A3023 RMK A01 T02240092  RH  043%=      5-min Rain = 0
KFR1 211659Z 23004G9KT 23/09 A3023 RMK A01 T02250091  RH  042%=      5-min Rain = 0
KFR1 211700Z 22008KT 23/09 A3023 RMK A01 T02250093  RH  043%=      5-min Rain = 0
KFR1 211701Z 21009KT 23/09 A3023 RMK A01 T02280093  RH  042%=      5-min Rain = 0
KFR1 211702Z 20008KT 23/09 A3023 RMK A01 T02290093  RH  042%=      5-min Rain = 0
KFR1 211703Z 22008KT 23/09 A3023 RMK A01 T02300092  RH  041%=      5-min Rain = 0
KFR1 211704Z 22010KT 23/09 A3023 RMK A01 T02300091  RH  041%=      5-min Rain = 0
KFR1 211705Z 22008KT 23/09 A3023 RMK A01 T02280091  RH  042%=      5-min Rain = 0
KFR1 211706Z 24009KT 23/09 A3023 RMK A01 T02280092  RH  042%=      5-min Rain = 0
KFR1 211707Z 23009KT 23/09 A3023 RMK A01 T02290091  RH  041%=      5-min Rain = 0
KFR1 211708Z 22008KT 23/09 A3023 RMK A01 T02290091  RH  042%=      5-min Rain = 0
KFR1 211709Z 21005KT 23/09 A3023 RMK A01 T02290093  RH  042%=      5-min Rain = 0
KFR1 211710Z 18007KT 23/09 A3023 RMK A01 T02320093  RH  041%=      5-min Rain = 0
KFR1 211711Z 19007KT 23/09 A3023 RMK A01 T02340094  RH  041%=      5-min Rain = 0
KFR1 211712Z 21007KT 24/09 A3022 RMK A01 T02350094  RH  041%=      5-min Rain = 0
KFR1 211713Z 21008KT 24/09 A3022 RMK A01 T02350093  RH  040%=      5-min Rain = 0
KFR1 211714Z 20009KT 23/09 A3022 RMK A01 T02330092  RH  041%=      5-min Rain = 0
KFR1 211715Z 20009KT 23/09 A3022 RMK A01 T02310091  RH  041%=      5-min Rain = 0
KFR1 211716Z 21008KT 23/09 A3022 RMK A01 T02310092  RH  041%=      5-min Rain = 0
KFR1 211717Z 22009KT 23/09 A3022 RMK A01 T02320093  RH  041%=      5-min Rain = 0
KFR1 211718Z 20007KT 23/09 A3022 RMK A01 T02340094  RH  041%=      5-min Rain = 0
KFR1 211719Z 22005KT 24/09 A3022 RMK A01 T02350094  RH  041%=      5-min Rain = 0
KFR1 211720Z 22005KT 24/09 A3022 RMK A01 T02350094  RH  041%=      5-min Rain = 0
KFR1 211721Z 21008KT 24/09 A3022 RMK A01 T02350094  RH  040%=      5-min Rain = 0
KFR1 211722Z 21008KT 24/09 A3022 RMK A01 T02350093  RH  041%=      5-min Rain = 0
KFR1 211723Z 21006KT 23/09 A3022 RMK A01 T02330092  RH  041%=      5-min Rain = 0
KFR1 211724Z 23006KT 23/09 A3022 RMK A01 T02330093  RH  041%=      5-min Rain = 0
KFR1 211725Z 22004KT 24/10 A3022 RMK A01 T02350095  RH  041%=      5-min Rain = 0
KFR1 211726Z 21005KT 24/10 A3022 RMK A01 T02380096  RH  040%=      5-min Rain = 0
KFR1 211727Z 21007KT 24/10 A3022 RMK A01 T02410097  RH  040%=      5-min Rain = 0
KFR1 211728Z 23008KT 24/10 A3022 RMK A01 T02430096  RH  039%=      5-min Rain = 0
KFR1 211729Z 23009KT 24/09 A3022 RMK A01 T02430093  RH  039%=      5-min Rain = 0
KFR1 211730Z 22008KT 24/09 A3022 RMK A01 T02380092  RH  040%=      5-min Rain = 0
KFR1 211731Z 21007KT 24/09 A3022 RMK A01 T02350092  RH  040%=      5-min Rain = 0
KFR1 211732Z 22009KT 24/09 A3022 RMK A01 T02350093  RH  041%=      5-min Rain = 0
KFR1 211733Z 21010KT 24/09 A3022 RMK A01 T02380091  RH  039%=      5-min Rain = 0
KFR1 211734Z 21009KT 24/09 A3022 RMK A01 T02370091  RH  040%=      5-min Rain = 0
KFR1 211735Z 21007KT 24/09 A3022 RMK A01 T02350092  RH  040%=      5-min Rain = 0
KFR1 211736Z 23005KT 23/09 A3022 RMK A01 T02330092  RH  041%=      5-min Rain = 0
KFR1 211737Z 22007KT 23/09 A3022 RMK A01 T02330091  RH  040%=      5-min Rain = 0
KFR1 211738Z 21009KT 24/09 A3022 RMK A01 T02360094  RH  040%=      5-min Rain = 0
KFR1 211739Z 22010KT 24/09 A3022 RMK A01 T02400093  RH  039%=      5-min Rain = 0
KFR1 211740Z 23009KT 24/09 A3022 RMK A01 T02400092  RH  039%=      5-min Rain = 0
KFR1 211741Z 22009KT 24/09 A3022 RMK A01 T02410093  RH  039%=      5-min Rain = 0
KFR1 211742Z 21008KT 24/09 A3022 RMK A01 T02430093  RH  039%=      5-min Rain = 0
KFR1 211743Z 22006KT 24/09 A3022 RMK A01 T02410093  RH  039%=      5-min Rain = 0
KFR1 211744Z 25006KT 24/09 A3022 RMK A01 T02400092  RH  039%=      5-min Rain = 0
KFR1 211745Z 23008KT 24/09 A3022 RMK A01 T02400092  RH  039%=      5-min Rain = 0
KFR1 211746Z 23008KT 24/09 A3022 RMK A01 T02410092  RH  039%=      5-min Rain = 0
KFR1 211747Z 21008KT 24/09 A3022 RMK A01 T02410093  RH  039%=      5-min Rain = 0
KFR1 211748Z 20006KT 24/09 A3022 RMK A01 T02410093  RH  039%=      5-min Rain = 0
KFR1 211749Z 20005KT 24/09 A3022 RMK A01 T02410093  RH  039%=      5-min Rain = 0
KFR1 211750Z 23005KT 24/09 A3022 RMK A01 T02390091  RH  039%=      5-min Rain = 0
KFR1 211751Z 21006KT 24/09 A3022 RMK A01 T02390093  RH  039%=      5-min Rain = 0
KFR1 211752Z 20009KT 24/09 A3022 RMK A01 T02440091  RH  038%=      5-min Rain = 0
KFR1 211753Z 20008KT 24/09 A3022 RMK A01 T02430089  RH  038%=      5-min Rain = 0
KFR1 211754Z 21007KT 24/09 A3022 RMK A01 T02410089  RH  038%=      5-min Rain = 0
KFR1 211755Z 18007KT 24/09 A3022 RMK A01 T02420093  RH  039%=      5-min Rain = 0
KFR1 211756Z 20006KT 25/09 A3022 RMK A01 T02450092  RH  038%=      5-min Rain = 0
KFR1 211757Z 23005KT 25/09 A3022 RMK A01 T02470092  RH  037%=      5-min Rain = 0
KFR1 211758Z 23007KT 25/09 A3022 RMK A01 T02500091  RH  036%=      5-min Rain = 0
KFR1 211759Z 21007KT 25/09 A3022 RMK A01 T02490092  RH  037%=      5-min Rain = 0
KFR1 211800Z 21007KT 25/09 A3021 RMK A01 T02480093  RH  037%=      5-min Rain = 0
KFR1 211801Z 21004KT 25/09 A3021 RMK A01 T02460093  RH  038%=      5-min Rain = 0
KFR1 211802Z 21004KT 25/09 A3021 RMK A01 T02450093  RH  038%=      5-min Rain = 0
KFR1 211803Z 19009KT 24/09 A3021 RMK A01 T02440093  RH  038%=      5-min Rain = 0
KFR1 211804Z 19009KT 25/09 A3021 RMK A01 T02460092  RH  038%=      5-min Rain = 0
KFR1 211805Z 20007KT 25/09 A3021 RMK A01 T02450091  RH  038%=      5-min Rain = 0
KFR1 211806Z 19004KT 24/09 A3021 RMK A01 T02430093  RH  038%=      5-min Rain = 0
KFR1 211807Z 19007KT 25/09 A3021 RMK A01 T02450092  RH  038%=      5-min Rain = 0
KFR1 211808Z 17007G14KT 25/09 A3021 RMK A01 T02460091  RH  037%=      5-min Rain = 0
KFR1 211809Z 19009KT 25/09 A3021 RMK A01 T02470091  RH  037%=      5-min Rain = 0
KFR1 211810Z 19010KT 25/09 A3021 RMK A01 T02490090  RH  037%=      5-min Rain = 0
KFR1 211811Z 18010KT 25/09 A3021 RMK A01 T02470090  RH  037%=      5-min Rain = 0
KFR1 211812Z 19008KT 25/09 A3021 RMK A01 T02460091  RH  037%=      5-min Rain = 0
KFR1 211813Z 18006KT 25/09 A3021 RMK A01 T02460093  RH  038%=      5-min Rain = 0
KFR1 211814Z 18005KT 25/09 A3021 RMK A01 T02480091  RH  037%=      5-min Rain = 0
KFR1 211815Z 21005KT 25/09 A3021 RMK A01 T02500092  RH  037%=      5-min Rain = 0
KFR1 211816Z 21005KT 25/09 A3021 RMK A01 T02510093  RH  037%=      5-min Rain = 0
KFR1 211817Z 20009KT 25/09 A3021 RMK A01 T02520092  RH  036%=      5-min Rain = 0
KFR1 211818Z 20005KT 25/09 A3021 RMK A01 T02520088  RH  035%=      5-min Rain = 0
KFR1 211819Z 19005KT 25/09 A3021 RMK A01 T02520093  RH  037%=      5-min Rain = 0
KFR1 211820Z 18009KT 26/09 A3021 RMK A01 T02560092  RH  035%=      5-min Rain = 0
KFR1 211821Z 20007KT 26/09 A3021 RMK A01 T02580091  RH  035%=      5-min Rain = 0
KFR1 211822Z 19007KT 26/09 A3021 RMK A01 T02560091  RH  035%=      5-min Rain = 0
KFR1 211823Z 17004KT 25/09 A3021 RMK A01 T02540090  RH  035%=      5-min Rain = 0
KFR1 211824Z 19004KT 25/09 A302 RMK A01 T02530090  RH  036%=      5-min Rain = 0
KFR1 211825Z 21007KT 25/09 A302 RMK A01 T02540091  RH  036%=      5-min Rain = 0
KFR1 211826Z 20005KT 25/09 A302 RMK A01 T02530091  RH  036%=      5-min Rain = 0
KFR1 211827Z 22005KT 25/09 A302 RMK A01 T02530092  RH  036%=      5-min Rain = 0
KFR1 211828Z 23005KT 25/09 A302 RMK A01 T02540090  RH  035%=      5-min Rain = 0
KFR1 211829Z 25005KT 26/09 A302 RMK A01 T02550090  RH  035%=      5-min Rain = 0
KFR1 211830Z 22007KT 26/09 A302 RMK A01 T02560090  RH  035%=      5-min Rain = 0
KFR1 211831Z 22008KT 26/09 A302 RMK A01 T02560092  RH  035%=      5-min Rain = 0
KFR1 211832Z 20005KT 26/09 A302 RMK A01 T02550089  RH  035%=      5-min Rain = 0
KFR1 211833Z 20005KT 25/09 A302 RMK A01 T02530090  RH  036%=      5-min Rain = 0
KFR1 211834Z 24006KT 26/09 A302 RMK A01 T02550090  RH  035%=      5-min Rain = 0
KFR1 211835Z 23002KT 26/09 A302 RMK A01 T02550087  RH  034%=      5-min Rain = 0
KFR1 211836Z 21005KT 25/09 A302 RMK A01 T02540089  RH  035%=      5-min Rain = 0
KFR1 211837Z 18007KT 26/09 A302 RMK A01 T02560090  RH  035%=      5-min Rain = 0
KFR1 211838Z 16007KT 26/09 A302 RMK A01 T02570089  RH  034%=      5-min Rain = 0
KFR1 211839Z 18007KT 26/09 A302 RMK A01 T02570090  RH  035%=      5-min Rain = 0
KFR1 211840Z 21007KT 26/09 A302 RMK A01 T02590090  RH  034%=      5-min Rain = 0
KFR1 211841Z 21005KT 26/09 A302 RMK A01 T02590090  RH  034%=      5-min Rain = 0
KFR1 211842Z 21006KT 26/09 A3019 RMK A01 T02590091  RH  035%=      5-min Rain = 0
KFR1 211843Z 23004KT 26/09 A3019 RMK A01 T02590090  RH  034%=      5-min Rain = 0
KFR1 211844Z 23003KT 26/09 A3019 RMK A01 T02580090  RH  035%=      5-min Rain = 0
KFR1 211845Z 19004KT 26/09 A3019 RMK A01 T02600094  RH  035%=      5-min Rain = 0
KFR1 211846Z 17003KT 27/09 A3019 RMK A01 T02660094  RH  034%=      5-min Rain = 0
KFR1 211847Z 13002KT 27/09 A3019 RMK A01 T02690091  RH  033%=      5-min Rain = 0
KFR1 211848Z 17003KT 27/09 A3019 RMK A01 T02690090  RH  032%=      5-min Rain = 0
KFR1 211849Z 14003KT 27/09 A3019 RMK A01 T02680090  RH  033%=      5-min Rain = 0
KFR1 211850Z 13003KT 27/09 A3019 RMK A01 T02660090  RH  033%=      5-min Rain = 0
KFR1 211851Z 19005G11KT 26/09 A3019 RMK A01 T02630091  RH  034%=      5-min Rain = 0
KFR1 211852Z 22010KT 26/09 A3019 RMK A01 T02630089  RH  033%=      5-min Rain = 0
KFR1 211853Z 21007KT 26/09 A3019 RMK A01 T02620090  RH  034%=      5-min Rain = 0
KFR1 211854Z 19008KT 26/09 A3019 RMK A01 T02620091  RH  034%=      5-min Rain = 0
KFR1 211855Z 19006KT 26/09 A3019 RMK A01 T02620089  RH  034%=      5-min Rain = 0
KFR1 211856Z 20007KT 26/09 A3019 RMK A01 T02590090  RH  034%=      5-min Rain = 0
KFR1 211857Z 22003KT 26/09 A3019 RMK A01 T02590087  RH  034%=      5-min Rain = 0
KFR1 211858Z 26002KT 26/09 A3019 RMK A01 T02600088  RH  034%=      5-min Rain = 0
KFR1 211859Z 23003KT 26/09 A3019 RMK A01 T02610089  RH  034%=      5-min Rain = 0
KFR1 211900Z 21007KT 27/09 A3019 RMK A01 T02650092  RH  034%=      5-min Rain = 0
KFR1 211901Z 19008KT 27/09 A3019 RMK A01 T02680091  RH  033%=      5-min Rain = 0
KFR1 211902Z 20006KT 27/09 A3019 RMK A01 T02660089  RH  033%=      5-min Rain = 0
KFR1 211903Z 20005KT 26/09 A3019 RMK A01 T02640090  RH  033%=      5-min Rain = 0
KFR1 211904Z 20004KT 26/09 A3019 RMK A01 T02630089  RH  033%=      5-min Rain = 0
KFR1 211905Z 19004KT 26/09 A3019 RMK A01 T02620089  RH  033%=      5-min Rain = 0
KFR1 211906Z 17003KT 26/09 A3019 RMK A01 T02620090  RH  034%=      5-min Rain = 0
KFR1 211907Z 15001KT 26/09 A3018 RMK A01 T02630090  RH  034%=      5-min Rain = 0
KFR1 211908Z 20006KT 27/09 A3018 RMK A01 T02660091  RH  033%=      5-min Rain = 0
KFR1 211909Z 21008KT 27/09 A3018 RMK A01 T02670088  RH  032%=      5-min Rain = 0
KFR1 211910Z 21007KT 27/09 A3018 RMK A01 T02660089  RH  033%=      5-min Rain = 0
KFR1 211911Z 21009KT 27/09 A3018 RMK A01 T02660088  RH  032%=      5-min Rain = 0
KFR1 211912Z 21010KT 27/09 A3018 RMK A01 T02660089  RH  033%=      5-min Rain = 0
KFR1 211913Z 18010G15KT 27/09 A3018 RMK A01 T02680090  RH  032%=      5-min Rain = 0
KFR1 211914Z 19007KT 27/09 A3018 RMK A01 T02700089  RH  032%=      5-min Rain = 0
KFR1 211915Z 20004KT 27/09 A3018 RMK A01 T02680086  RH  032%=      5-min Rain = 0
KFR1 211916Z 14004KT 27/09 A3018 RMK A01 T02660086  RH  032%=      5-min Rain = 0
KFR1 211917Z 14003KT 27/09 A3018 RMK A01 T02650087  RH  032%=      5-min Rain = 0
KFR1 211918Z 15004KT 27/09 A3018 RMK A01 T02650087  RH  032%=      5-min Rain = 0
KFR1 211919Z 16003KT 27/09 A3018 RMK A01 T02650087  RH  033%=      5-min Rain = 0
KFR1 211920Z 19006KT 27/09 A3018 RMK A01 T02660089  RH  033%=      5-min Rain = 0
KFR1 211921Z 20012KT 27/09 A3017 RMK A01 T02690089  RH  032%=      5-min Rain = 0
KFR1 211922Z 20006KT 27/09 A3018 RMK A01 T02710087  RH  031%=      5-min Rain = 0
KFR1 211923Z 19008KT 27/09 A3017 RMK A01 T02720089  RH  032%=      5-min Rain = 0
KFR1 211924Z 18008KT 27/09 A3017 RMK A01 T02720087  RH  031%=      5-min Rain = 0
KFR1 211925Z 18005KT 27/09 A3017 RMK A01 T02690087  RH  032%=      5-min Rain = 0
KFR1 211926Z 19006KT 27/09 A3017 RMK A01 T02680087  RH  032%=      5-min Rain = 0
KFR1 211927Z 18004KT 27/09 A3017 RMK A01 T02670086  RH  032%=      5-min Rain = 0
KFR1 211928Z 24006KT 27/09 A3017 RMK A01 T02680089  RH  032%=      5-min Rain = 0
KFR1 211929Z 23005KT 27/09 A3017 RMK A01 T02710088  RH  032%=      5-min Rain = 0
KFR1 211930Z 24004KT 27/09 A3017 RMK A01 T02700088  RH  032%=      5-min Rain = 0
KFR1 211931Z 19004KT 27/09 A3017 RMK A01 T02700089  RH  032%=      5-min Rain = 0
KFR1 211932Z 21005G11KT 27/09 A3017 RMK A01 T02720090  RH  032%=      5-min Rain = 0
KFR1 211933Z 18008KT 28/09 A3017 RMK A01 T02750090  RH  031%=      5-min Rain = 0
KFR1 211934Z 18012KT 28/09 A3017 RMK A01 T02760087  RH  030%=      5-min Rain = 0
KFR1 211935Z 18009KT 28/08 A3017 RMK A01 T02760082  RH  029%=      5-min Rain = 0
KFR1 211936Z 19007KT 27/08 A3017 RMK A01 T02740082  RH  030%=      5-min Rain = 0
KFR1 211937Z 18006KT 27/08 A3017 RMK A01 T02730082  RH  030%=      5-min Rain = 0
KFR1 211938Z 18004KT 27/08 A3017 RMK A01 T02730080  RH  029%=      5-min Rain = 0
KFR1 211939Z 19009KT 27/08 A3016 RMK A01 T02730082  RH  030%=      5-min Rain = 0
KFR1 211940Z 18008KT 27/08 A3016 RMK A01 T02740081  RH  030%=      5-min Rain = 0
KFR1 211941Z 18008KT 28/08 A3016 RMK A01 T02760084  RH  030%=      5-min Rain = 0
KFR1 211942Z 17007KT 28/08 A3016 RMK A01 T02770081  RH  029%=      5-min Rain = 0
KFR1 211943Z 17007KT 28/08 A3016 RMK A01 T02760078  RH  029%=      5-min Rain = 0
KFR1 211944Z 19007KT 28/08 A3016 RMK A01 T02750080  RH  029%=      5-min Rain = 0
KFR1 211945Z 19006G11KT 27/08 A3016 RMK A01 T02740080  RH  029%=      5-min Rain = 0
KFR1 211946Z 19010KT 27/08 A3016 RMK A01 T02730084  RH  030%=      5-min Rain = 0
KFR1 211947Z 19010KT 27/09 A3016 RMK A01 T02740085  RH  030%=      5-min Rain = 0
KFR1 211948Z 20009KT 28/08 A3016 RMK A01 T02750083  RH  030%=      5-min Rain = 0
KFR1 211949Z 19007KT 27/08 A3016 RMK A01 T02740081  RH  030%=      5-min Rain = 0
KFR1 211950Z 18006KT 27/08 A3016 RMK A01 T02740080  RH  029%=      5-min Rain = 0
KFR1 211951Z 19004KT 27/08 A3016 RMK A01 T02730078  RH  029%=      5-min Rain = 0
KFR1 211952Z 17004KT 27/08 A3016 RMK A01 T02730078  RH  029%=      5-min Rain = 0
KFR1 211953Z 16004KT 27/08 A3016 RMK A01 T02730080  RH  030%=      5-min Rain = 0
KFR1 211954Z 16002KT 27/08 A3016 RMK A01 T02730081  RH  030%=      5-min Rain = 0
KFR1 211955Z 20003KT 27/08 A3016 RMK A01 T02740083  RH  030%=      5-min Rain = 0
KFR1 211956Z 17005KT 28/09 A3016 RMK A01 T02780085  RH  030%=      5-min Rain = 0
KFR1 211957Z 19011KT 28/08 A3015 RMK A01 T02840082  RH  028%=      5-min Rain = 0
KFR1 211958Z 21011KT 28/08 A3015 RMK A01 T02810081  RH  028%=      5-min Rain = 0
KFR1 211959Z 21008KT 28/08 A3015 RMK A01 T02770083  RH  029%=      5-min Rain = 0
KFR1 212000Z 19007KT 28/09 A3015 RMK A01 T02780086  RH  030%=      5-min Rain = 0
KFR1 212001Z 19005KT 28/09 A3015 RMK A01 T02820086  RH  029%=      5-min Rain = 0
KFR1 212002Z 17007KT 29/09 A3015 RMK A01 T02850086  RH  029%=      5-min Rain = 0
KFR1 212003Z 14003KT 28/08 A3015 RMK A01 T02840083  RH  028%=      5-min Rain = 0
KFR1 212004Z 16008KT 28/08 A3015 RMK A01 T02830084  RH  029%=      5-min Rain = 0
KFR1 212005Z 16007KT 28/08 A3015 RMK A01 T02820083  RH  028%=      5-min Rain = 0
KFR1 212006Z 17007KT 28/08 A3015 RMK A01 T02820083  RH  029%=      5-min Rain = 0
KFR1 212007Z 18010KT 28/08 A3015 RMK A01 T02810082  RH  029%=      5-min Rain = 0
KFR1 212008Z 17008KT 28/08 A3015 RMK A01 T02800082  RH  029%=      5-min Rain = 0
KFR1 212009Z 16008KT 28/08 A3015 RMK A01 T02810082  RH  029%=      5-min Rain = 0
KFR1 212010Z 16006KT 28/08 A3015 RMK A01 T02800079  RH  028%=      5-min Rain = 0
KFR1 212011Z 18004KT 28/08 A3015 RMK A01 T02780080  RH  029%=      5-min Rain = 0
KFR1 212012Z 15006KT 28/08 A3015 RMK A01 T02790081  RH  029%=      5-min Rain = 0
KFR1 212013Z 16010G16KT 28/08 A3015 RMK A01 T02790080  RH  028%=      5-min Rain = 0
KFR1 212014Z 18012KT 28/08 A3015 RMK A01 T02800081  RH  029%=      5-min Rain = 0
KFR1 212015Z 18011KT 28/08 A3015 RMK A01 T02800081  RH  029%=      5-min Rain = 0
KFR1 212016Z 17012KT 28/08 A3015 RMK A01 T02810081  RH  028%=      5-min Rain = 0
KFR1 212017Z 17009KT 28/08 A3015 RMK A01 T02810081  RH  028%=      5-min Rain = 0
KFR1 212018Z 18008KT 28/08 A3014 RMK A01 T02800079  RH  028%=      5-min Rain = 0
KFR1 212019Z 16007KT 28/08 A3015 RMK A01 T02780080  RH  029%=      5-min Rain = 0
KFR1 212020Z 16005KT 28/08 A3015 RMK A01 T02790080  RH  028%=      5-min Rain = 0
KFR1 212021Z 14007KT 28/08 A3014 RMK A01 T02800079  RH  028%=      5-min Rain = 0
KFR1 212022Z 14008KT 28/08 A3014 RMK A01 T02800075  RH  027%=      5-min Rain = 0
KFR1 212023Z 13006KT 28/07 A3014 RMK A01 T02760073  RH  028%=      5-min Rain = 0
KFR1 212024Z 16007KT 28/07 A3014 RMK A01 T02750074  RH  028%=      5-min Rain = 0
KFR1 212025Z 15006G11KT 28/08 A3014 RMK A01 T02760075  RH  028%=      5-min Rain = 0
KFR1 212026Z 16009KT 28/08 A3014 RMK A01 T02800075  RH  027%=      5-min Rain = 0
KFR1 212027Z 17013KT 28/08 A3014 RMK A01 T02820075  RH  027%=      5-min Rain = 0
KFR1 212028Z 17010KT 28/08 A3014 RMK A01 T02820075  RH  027%=      5-min Rain = 0
KFR1 212029Z 18010KT 28/08 A3014 RMK A01 T02810075  RH  027%=      5-min Rain = 0
KFR1 212030Z 19007KT 28/08 A3014 RMK A01 T02800076  RH  028%=      5-min Rain = 0
KFR1 212031Z 17011KT 28/07 A3014 RMK A01 T02790074  RH  027%=      5-min Rain = 0
KFR1 212032Z 20010KT 28/07 A3014 RMK A01 T02790073  RH  027%=      5-min Rain = 0
KFR1 212033Z 19009KT 28/07 A3014 RMK A01 T02800072  RH  027%=      5-min Rain = 0
KFR1 212034Z 16006KT 28/07 A3014 RMK A01 T02790069  RH  027%=      5-min Rain = 0
KFR1 212035Z 16007KT 28/07 A3014 RMK A01 T02780068  RH  026%=      5-min Rain = 0
KFR1 212036Z 16010KT 28/07 A3014 RMK A01 T02790071  RH  027%=      5-min Rain = 0
KFR1 212037Z 17008KT 28/07 A3014 RMK A01 T02800074  RH  027%=      5-min Rain = 0
KFR1 212038Z 20007KT 28/08 A3014 RMK A01 T02820075  RH  027%=      5-min Rain = 0
KFR1 212039Z 16006KT 28/08 A3014 RMK A01 T02830077  RH  027%=      5-min Rain = 0
KFR1 212040Z 16007KT 29/08 A3014 RMK A01 T02850076  RH  027%=      5-min Rain = 0
KFR1 212041Z 17008KT 29/08 A3014 RMK A01 T02870076  RH  026%=      5-min Rain = 0
KFR1 212042Z 18008KT 29/07 A3014 RMK A01 T02860073  RH  026%=      5-min Rain = 0
KFR1 212043Z 19010KT 28/07 A3014 RMK A01 T02840073  RH  026%=      5-min Rain = 0
KFR1 212044Z 19010KT 28/07 A3014 RMK A01 T02820070  RH  026%=      5-min Rain = 0
KFR1 212045Z 18010KT 28/07 A3014 RMK A01 T02810069  RH  026%=      5-min Rain = 0
KFR1 212046Z 17008KT 28/07 A3014 RMK A01 T02790067  RH  026%=      5-min Rain = 0
KFR1 212047Z 18005KT 28/07 A3014 RMK A01 T02780067  RH  026%=      5-min Rain = 0
KFR1 212048Z 17005KT 28/07 A3014 RMK A01 T02780068  RH  027%=      5-min Rain = 0
KFR1 212049Z 18008KT 28/07 A3014 RMK A01 T02820074  RH  027%=      5-min Rain = 0
KFR1 212050Z 20009KT 29/08 A3013 RMK A01 T02850075  RH  027%=      5-min Rain = 0
KFR1 212051Z 21009KT 29/08 A3013 RMK A01 T02850075  RH  027%=      5-min Rain = 0
KFR1 212052Z 22008KT 28/07 A3013 RMK A01 T02840073  RH  026%=      5-min Rain = 0
KFR1 212053Z 17006KT 28/07 A3013 RMK A01 T02820074  RH  027%=      5-min Rain = 0
KFR1 212054Z 15007KT 28/07 A3014 RMK A01 T02820071  RH  026%=      5-min Rain = 0
KFR1 212055Z 17007KT 28/07 A3013 RMK A01 T02800069  RH  026%=      5-min Rain = 0
KFR1 212056Z 16006KT 28/07 A3013 RMK A01 T02780072  RH  027%=      5-min Rain = 0
KFR1 212057Z 18008KT 28/07 A3013 RMK A01 T02820073  RH  027%=      5-min Rain = 0
KFR1 212058Z 19011KT 29/07 A3013 RMK A01 T02850070  RH  026%=      5-min Rain = 0
KFR1 212059Z 20008KT 29/07 A3013 RMK A01 T02850069  RH  025%=      5-min Rain = 0
KFR1 212100Z 22009KT 28/07 A3013 RMK A01 T02840066  RH  025%=      5-min Rain = 0
KFR1 212101Z 19009KT 28/07 A3013 RMK A01 T02810067  RH  026%=      5-min Rain = 0
KFR1 212102Z 17009KT 28/07 A3013 RMK A01 T02820066  RH  025%=      5-min Rain = 0
KFR1 212103Z 16009KT 28/07 A3013 RMK A01 T02820065  RH  025%=      5-min Rain = 0
KFR1 212104Z 15009KT 28/07 A3013 RMK A01 T02810068  RH  026%=      5-min Rain = 0
KFR1 212105Z 15007G12KT 28/07 A3013 RMK A01 T02820073  RH  027%=      5-min Rain = 0
KFR1 212106Z 16006KT 28/07 A3013 RMK A01 T02840073  RH  026%=      5-min Rain = 0
KFR1 212107Z 15007KT 28/07 A3013 RMK A01 T02830073  RH  027%=      5-min Rain = 0
KFR1 212108Z 13008KT 28/08 A3013 RMK A01 T02820075  RH  027%=      5-min Rain = 0
KFR1 212109Z 16007KT 28/08 A3013 RMK A01 T02810075  RH  027%=      5-min Rain = 0
KFR1 212110Z 15006G11KT 28/08 A3013 RMK A01 T02800077  RH  028%=      5-min Rain = 0
KFR1 212111Z 16008KT 28/08 A3013 RMK A01 T02800077  RH  028%=      5-min Rain = 0
KFR1 212112Z 14007KT 28/08 A3013 RMK A01 T02790077  RH  028%=      5-min Rain = 0
KFR1 212113Z 20008KT 28/08 A3013 RMK A01 T02790079  RH  028%=      5-min Rain = 0
KFR1 212114Z 18010KT 28/08 A3013 RMK A01 T02830080  RH  028%=      5-min Rain = 0
KFR1 212115Z 17009KT 28/08 A3013 RMK A01 T02840082  RH  028%=      5-min Rain = 0
KFR1 212116Z 16010KT 28/08 A3013 RMK A01 T02840081  RH  028%=      5-min Rain = 0
KFR1 212117Z 16008KT 29/08 A3013 RMK A01 T02850081  RH  028%=      5-min Rain = 0
KFR1 212118Z 15005KT 28/08 A3013 RMK A01 T02840081  RH  028%=      5-min Rain = 0
KFR1 212119Z 16004KT 28/08 A3013 RMK A01 T02840082  RH  028%=      5-min Rain = 0
KFR1 212120Z 16005KT 28/08 A3013 RMK A01 T02840083  RH  028%=      5-min Rain = 0
KFR1 212121Z 15008G14KT 29/08 A3013 RMK A01 T02870080  RH  027%=      5-min Rain = 0
KFR1 212122Z 16010KT 29/08 A3013 RMK A01 T02870079  RH  027%=      5-min Rain = 0
KFR1 212123Z 17012KT 29/08 A3013 RMK A01 T02850075  RH  027%=      5-min Rain = 0
KFR1 212124Z 18012KT 28/07 A3013 RMK A01 T02820074  RH  027%=      5-min Rain = 0
KFR1 212125Z 18009KT 28/08 A3013 RMK A01 T02810075  RH  027%=      5-min Rain = 0
KFR1 212126Z 17011KT 28/08 A3013 RMK A01 T02820075  RH  027%=      5-min Rain = 0
KFR1 212127Z 17013KT 28/07 A3013 RMK A01 T02830074  RH  027%=      5-min Rain = 0
KFR1 212128Z 18011KT 28/07 A3013 RMK A01 T02810072  RH  027%=      5-min Rain = 0
KFR1 212129Z 17008KT 28/07 A3013 RMK A01 T02780072  RH  027%=      5-min Rain = 0
KFR1 212130Z 18008KT 28/08 A3013 RMK A01 T02780075  RH  028%=      5-min Rain = 0
KFR1 212131Z 17009KT 28/08 A3013 RMK A01 T02800078  RH  028%=      5-min Rain = 0
KFR1 212132Z 17010KT 28/08 A3013 RMK A01 T02810078  RH  028%=      5-min Rain = 0
KFR1 212133Z 16011KT 28/08 A3012 RMK A01 T02820078  RH  028%=      5-min Rain = 0
KFR1 212134Z 14007KT 28/08 A3013 RMK A01 T02820078  RH  028%=      5-min Rain = 0
KFR1 212135Z 16008KT 28/08 A3013 RMK A01 T02800077  RH  028%=      5-min Rain = 0
KFR1 212136Z 15007KT 28/08 A3012 RMK A01 T02800079  RH  028%=      5-min Rain = 0
KFR1 212137Z 15009KT 28/08 A3012 RMK A01 T02810076  RH  027%=      5-min Rain = 0
KFR1 212138Z 15008KT 28/08 A3012 RMK A01 T02790075  RH  028%=      5-min Rain = 0
KFR1 212139Z 14008KT 28/08 A3012 RMK A01 T02790075  RH  027%=      5-min Rain = 0
KFR1 212140Z 15007KT 28/07 A3012 RMK A01 T02790073  RH  027%=      5-min Rain = 0
KFR1 212141Z 15007KT 28/07 A3012 RMK A01 T02780074  RH  028%=      5-min Rain = 0
KFR1 212142Z 18011KT 28/08 A3012 RMK A01 T02790075  RH  027%=      5-min Rain = 0
KFR1 212143Z 16012KT 28/07 A3012 RMK A01 T02800073  RH  027%=      5-min Rain = 0
KFR1 212144Z 15006KT 28/07 A3012 RMK A01 T02800073  RH  027%=      5-min Rain = 0
KFR1 212145Z 15009KT 28/07 A3012 RMK A01 T02810072  RH  027%=      5-min Rain = 0
KFR1 212146Z 15008KT 28/07 A3012 RMK A01 T02800072  RH  027%=      5-min Rain = 0
KFR1 212147Z 15007KT 28/07 A3012 RMK A01 T02800072  RH  027%=      5-min Rain = 0
KFR1 212148Z 16007KT 28/07 A3012 RMK A01 T02800071  RH  027%=      5-min Rain = 0
KFR1 212149Z 16006KT 28/07 A3012 RMK A01 T02800071  RH  027%=      5-min Rain = 0
KFR1 212150Z 16006KT 28/07 A3012 RMK A01 T02810074  RH  027%=      5-min Rain = 0
KFR1 212151Z 17008KT 28/07 A3012 RMK A01 T02820074  RH  027%=      5-min Rain = 0
KFR1 212152Z 13009KT 28/07 A3012 RMK A01 T02820074  RH  027%=      5-min Rain = 0
KFR1 212153Z 14009KT 28/07 A3012 RMK A01 T02800071  RH  027%=      5-min Rain = 0
KFR1 212154Z 14006KT 28/07 A3012 RMK A01 T02770071  RH  027%=      5-min Rain = 0
KFR1 212155Z 14005KT 28/07 A3012 RMK A01 T02760072  RH  028%=      5-min Rain = 0
KFR1 212156Z 16007KT 28/08 A3012 RMK A01 T02780076  RH  028%=      5-min Rain = 0
KFR1 212157Z 14005KT 28/08 A3012 RMK A01 T02800075  RH  027%=      5-min Rain = 0
KFR1 212158Z 13005KT 28/08 A3012 RMK A01 T02820076  RH  027%=      5-min Rain = 0
KFR1 212159Z 13005KT 28/07 A3012 RMK A01 T02820074  RH  027%=      5-min Rain = 0
KFR1 212200Z 11005G10KT 28/07 A3012 RMK A01 T02820073  RH  027%=      5-min Rain = 0
KFR1 212201Z 18007KT 28/07 A3012 RMK A01 T02800074  RH  027%=      5-min Rain = 0
KFR1 212202Z 19011KT 28/07 A3012 RMK A01 T02810069  RH  026%=      5-min Rain = 0
KFR1 212203Z 17008KT 28/07 A3012 RMK A01 T02810067  RH  026%=      5-min Rain = 0
KFR1 212204Z 16007KT 28/07 A3012 RMK A01 T02810066  RH  026%=      5-min Rain = 0
KFR1 212205Z 16007KT 28/07 A3012 RMK A01 T02800065  RH  026%=      5-min Rain = 0
KFR1 212206Z 16006KT 28/07 A3012 RMK A01 T02800072  RH  027%=      5-min Rain = 0
KFR1 212207Z 16009KT 28/08 A3012 RMK A01 T02820075  RH  027%=      5-min Rain = 0
KFR1 212208Z 15008KT 28/08 A3012 RMK A01 T02810075  RH  027%=      5-min Rain = 0
KFR1 212209Z 15008KT 28/07 A3012 RMK A01 T02790073  RH  027%=      5-min Rain = 0
KFR1 212210Z 14008KT 28/07 A3012 RMK A01 T02780073  RH  027%=      5-min Rain = 0
KFR1 212211Z 14007KT 28/07 A3012 RMK A01 T02770073  RH  028%=      5-min Rain = 0
KFR1 212212Z 16010KT 28/07 A3012 RMK A01 T02760074  RH  028%=      5-min Rain = 0
KFR1 212213Z 17010KT 28/08 A3012 RMK A01 T02760076  RH  028%=      5-min Rain = 0
KFR1 212214Z 17011KT 28/08 A3012 RMK A01 T02780076  RH  028%=      5-min Rain = 0
KFR1 212215Z 17010KT 28/08 A3012 RMK A01 T02780075  RH  028%=      5-min Rain = 0
KFR1 212216Z 17007KT 28/08 A3012 RMK A01 T02770075  RH  028%=      5-min Rain = 0
KFR1 212217Z 16008KT 28/07 A3012 RMK A01 T02770074  RH  028%=      5-min Rain = 0
KFR1 212218Z 14006KT 28/07 A3012 RMK A01 T02760074  RH  028%=      5-min Rain = 0
KFR1 212219Z 13009KT 28/07 A3012 RMK A01 T02760073  RH  028%=      5-min Rain = 0
KFR1 212220Z 13008KT 28/07 A3012 RMK A01 T02750072  RH  028%=      5-min Rain = 0
KFR1 212221Z 14007KT 28/07 A3012 RMK A01 T02750072  RH  028%=      5-min Rain = 0
KFR1 212222Z 14007KT 27/07 A3012 RMK A01 T02740072  RH  028%=      5-min Rain = 0
KFR1 212223Z 14006KT 28/07 A3012 RMK A01 T02750072  RH  028%=      5-min Rain = 0
KFR1 212224Z 15008G13KT 28/07 A3012 RMK A01 T02750072  RH  028%=      5-min Rain = 0
KFR1 212225Z 15010KT 28/07 A3012 RMK A01 T02750068  RH  027%=      5-min Rain = 0
KFR1 212226Z 15009KT 28/07 A3012 RMK A01 T02750069  RH  027%=      5-min Rain = 0
KFR1 212227Z 17008KT 28/07 A3012 RMK A01 T02750072  RH  028%=      5-min Rain = 0
KFR1 212228Z 18009KT 28/07 A3012 RMK A01 T02760071  RH  027%=      5-min Rain = 0
KFR1 212229Z 18009KT 28/07 A3012 RMK A01 T02770071  RH  027%=      5-min Rain = 0
KFR1 212230Z 17009KT 28/07 A3012 RMK A01 T02770070  RH  027%=      5-min Rain = 0
KFR1 212231Z 17007KT 28/07 A3012 RMK A01 T02760070  RH  027%=      5-min Rain = 0
KFR1 212232Z 17007KT 28/07 A3012 RMK A01 T02770072  RH  027%=      5-min Rain = 0
KFR1 212233Z 18010KT 28/07 A3012 RMK A01 T02780069  RH  027%=      5-min Rain = 0
KFR1 212234Z 17008KT 28/07 A3012 RMK A01 T02780067  RH  026%=      5-min Rain = 0
KFR1 212235Z 16009G14KT 28/07 A3012 RMK A01 T02770068  RH  026%=      5-min Rain = 0
KFR1 212236Z 17012KT 28/07 A3012 RMK A01 T02770067  RH  027%=      5-min Rain = 0
KFR1 212237Z 17009KT 28/07 A3012 RMK A01 T02760067  RH  026%=      5-min Rain = 0
KFR1 212238Z 17008KT 28/07 A3012 RMK A01 T02760067  RH  027%=      5-min Rain = 0
KFR1 212239Z 16008KT 28/07 A3012 RMK A01 T02760068  RH  027%=      5-min Rain = 0
KFR1 212240Z 16009KT 28/07 A3012 RMK A01 T02770066  RH  026%=      5-min Rain = 0
KFR1 212241Z 17010KT 28/07 A3012 RMK A01 T02770065  RH  026%=      5-min Rain = 0
KFR1 212242Z 17008KT 28/07 A3011 RMK A01 T02760066  RH  026%=      5-min Rain = 0
KFR1 212243Z 16008KT 28/07 A3012 RMK A01 T02760066  RH  026%=      5-min Rain = 0
KFR1 212244Z 17009KT 28/07 A3012 RMK A01 T02760066  RH  026%=      5-min Rain = 0
KFR1 212245Z 16010KT 28/07 A3012 RMK A01 T02760065  RH  026%=      5-min Rain = 0
KFR1 212246Z 17009KT 28/06 A3012 RMK A01 T02760064  RH  026%=      5-min Rain = 0
KFR1 212247Z 17009KT 28/06 A3011 RMK A01 T02750064  RH  026%=      5-min Rain = 0
KFR1 212248Z 17010KT 28/06 A3011 RMK A01 T02750062  RH  026%=      5-min Rain = 0
KFR1 212249Z 17008KT 28/06 A3011 RMK A01 T02750062  RH  026%=      5-min Rain = 0
KFR1 212250Z 15006KT 27/06 A3012 RMK A01 T02740061  RH  026%=      5-min Rain = 0
KFR1 212251Z 15006KT 27/06 A3012 RMK A01 T02730062  RH  026%=      5-min Rain = 0
KFR1 212252Z 16006KT 27/06 A3012 RMK A01 T02740061  RH  026%=      5-min Rain = 0
KFR1 212253Z 15006KT 27/06 A3012 RMK A01 T02740061  RH  026%=      5-min Rain = 0
KFR1 212254Z 15006KT 28/06 A3012 RMK A01 T02750061  RH  026%=      5-min Rain = 0
KFR1 212255Z 15006KT 28/06 A3012 RMK A01 T02750061  RH  026%=      5-min Rain = 0
KFR1 212256Z 16007KT 28/06 A3012 RMK A01 T02750061  RH  026%=      5-min Rain = 0
KFR1 212257Z 17007KT 28/06 A3012 RMK A01 T02750062  RH  026%=      5-min Rain = 0
KFR1 212258Z 17007KT 28/06 A3012 RMK A01 T02760062  RH  026%=      5-min Rain = 0
KFR1 212259Z 17009KT 28/06 A3012 RMK A01 T02760063  RH  026%=      5-min Rain = 0
KFR1 212300Z 17009KT 28/06 A3012 RMK A01 T02760061  RH  025%=      5-min Rain = 0
KFR1 212301Z 18007KT 28/06 A3012 RMK A01 T02760060  RH  025%=      5-min Rain = 0
KFR1 212302Z 18010KT 28/06 A3012 RMK A01 T02750060  RH  026%=      5-min Rain = 0
KFR1 212303Z 18007KT 27/06 A3012 RMK A01 T02740059  RH  025%=      5-min Rain = 0
KFR1 212304Z 18006G11KT 27/06 A3012 RMK A01 T02740062  RH  026%=      5-min Rain = 0
KFR1 212305Z 18010KT 27/06 A3012 RMK A01 T02740061  RH  026%=      5-min Rain = 0
KFR1 212306Z 18008KT 27/06 A3012 RMK A01 T02740059  RH  025%=      5-min Rain = 0
KFR1 212307Z 17009KT 27/06 A3012 RMK A01 T02740060  RH  026%=      5-min Rain = 0
KFR1 212308Z 17009KT 27/06 A3012 RMK A01 T02730059  RH  026%=      5-min Rain = 0
KFR1 212309Z 17007KT 27/06 A3012 RMK A01 T02730059  RH  026%=      5-min Rain = 0
KFR1 212310Z 17008KT 27/06 A3012 RMK A01 T02730061  RH  026%=      5-min Rain = 0
KFR1 212311Z 15008KT 27/06 A3012 RMK A01 T02720061  RH  026%=      5-min Rain = 0
KFR1 212312Z 14007KT 27/06 A3012 RMK A01 T02720060  RH  026%=      5-min Rain = 0
KFR1 212313Z 14006KT 27/06 A3012 RMK A01 T02710059  RH  026%=      5-min Rain = 0
KFR1 212314Z 15004G9KT 27/06 A3012 RMK A01 T02710059  RH  026%=      5-min Rain = 0
KFR1 212315Z 13005KT 27/06 A3012 RMK A01 T02700060  RH  026%=      5-min Rain = 0
KFR1 212316Z 14008KT 27/06 A3012 RMK A01 T02700061  RH  026%=      5-min Rain = 0
KFR1 212317Z 16009KT 27/06 A3012 RMK A01 T02700060  RH  026%=      5-min Rain = 0
KFR1 212318Z 16009KT 27/06 A3012 RMK A01 T02700060  RH  026%=      5-min Rain = 0
KFR1 212319Z 16008KT 27/06 A3012 RMK A01 T02710061  RH  026%=      5-min Rain = 0
KFR1 212320Z 17010KT 27/06 A3012 RMK A01 T02710062  RH  026%=      5-min Rain = 0
KFR1 212321Z 16008KT 27/06 A3012 RMK A01 T02710063  RH  027%=      5-min Rain = 0
KFR1 212322Z 16007KT 27/07 A3012 RMK A01 T02710065  RH  027%=      5-min Rain = 0
KFR1 212323Z 16010KT 27/06 A3012 RMK A01 T02710064  RH  027%=      5-min Rain = 0
KFR1 212324Z 16007KT 27/06 A3012 RMK A01 T02710063  RH  027%=      5-min Rain = 0
KFR1 212325Z 16007KT 27/06 A3012 RMK A01 T02700062  RH  027%=      5-min Rain = 0
KFR1 212326Z 16006KT 27/06 A3012 RMK A01 T02690061  RH  027%=      5-min Rain = 0
KFR1 212327Z 15009KT 27/06 A3012 RMK A01 T02690062  RH  027%=      5-min Rain = 0
KFR1 212328Z 16008KT 27/06 A3012 RMK A01 T02690061  RH  027%=      5-min Rain = 0
KFR1 212329Z 16008G13KT 27/06 A3012 RMK A01 T02680060  RH  026%=      5-min Rain = 0
KFR1 212330Z 16010KT 27/06 A3012 RMK A01 T02680060  RH  026%=      5-min Rain = 0
KFR1 212331Z 16007G13KT 27/06 A3012 RMK A01 T02670060  RH  027%=      5-min Rain = 0
KFR1 212332Z 16011KT 27/06 A3012 RMK A01 T02670060  RH  027%=      5-min Rain = 0
KFR1 212333Z 14006KT 27/06 A3012 RMK A01 T02670060  RH  027%=      5-min Rain = 0
KFR1 212334Z 14007G13KT 27/06 A3012 RMK A01 T02670060  RH  027%=      5-min Rain = 0
KFR1 212335Z 14006KT 27/06 A3012 RMK A01 T02660059  RH  027%=      5-min Rain = 0
KFR1 212336Z 14006KT 27/06 A3012 RMK A01 T02660059  RH  027%=      5-min Rain = 0
KFR1 212337Z 15006KT 27/06 A3012 RMK A01 T02660060  RH  027%=      5-min Rain = 0
KFR1 212338Z 15006KT 27/06 A3012 RMK A01 T02650060  RH  027%=      5-min Rain = 0
KFR1 212339Z 15008KT 27/06 A3012 RMK A01 T02650058  RH  027%=      5-min Rain = 0
KFR1 212340Z 14006KT 27/06 A3012 RMK A01 T02650058  RH  027%=      5-min Rain = 0
KFR1 212341Z 14006KT 26/06 A3012 RMK A01 T02640058  RH  027%=      5-min Rain = 0
KFR1 212342Z 14006KT 26/06 A3012 RMK A01 T02640058  RH  027%=      5-min Rain = 0
KFR1 212343Z 15007KT 26/06 A3012 RMK A01 T02630058  RH  027%=      5-min Rain = 0
KFR1 212344Z 15008KT 26/06 A3012 RMK A01 T02630058  RH  027%=      5-min Rain = 0
KFR1 212345Z 14007KT 26/06 A3012 RMK A01 T02630058  RH  027%=      5-min Rain = 0
KFR1 212346Z 15006KT 26/06 A3012 RMK A01 T02620059  RH  027%=      5-min Rain = 0
KFR1 212347Z 15006KT 26/06 A3012 RMK A01 T02620059  RH  027%=      5-min Rain = 0
KFR1 212348Z 15005KT 26/06 A3013 RMK A01 T02620060  RH  028%=      5-min Rain = 0
KFR1 212349Z 15006KT 26/06 A3013 RMK A01 T02620059  RH  027%=      5-min Rain = 0
KFR1 212350Z 15006G11KT 26/06 A3013 RMK A01 T02610058  RH  027%=      5-min Rain = 0
KFR1 212351Z 14007G12KT 26/06 A3013 RMK A01 T02600057  RH  027%=      5-min Rain = 0
KFR1 212352Z 14008KT 26/06 A3013 RMK A01 T02600057  RH  027%=      5-min Rain = 0
KFR1 212353Z 14008KT 26/06 A3013 RMK A01 T02600057  RH  027%=      5-min Rain = 0
KFR1 212354Z 15006KT 26/06 A3013 RMK A01 T02590058  RH  027%=      5-min Rain = 0
KFR1 212355Z 15006KT 26/06 A3013 RMK A01 T02580058  RH  028%=      5-min Rain = 0
KFR1 212356Z 15006KT 26/06 A3013 RMK A01 T02580058  RH  028%=      5-min Rain = 0
KFR1 212357Z 15007KT 26/06 A3013 RMK A01 T02580058  RH  028%=      5-min Rain = 0
KFR1 212358Z 15007KT 26/06 A3013 RMK A01 T02570058  RH  028%=      5-min Rain = 0
KFR1 212359Z 15008KT 26/06 A3013 RMK A01 T02570058  RH  028%=      5-min Rain = 0
KFR1 220000Z 15008KT 26/06 A3013 RMK A01 T02570057  RH  028%=      5-min Rain = 0
KFR1 220001Z 16006KT 26/06 A3013 RMK A01 T02560058  RH  028%=      5-min Rain = 0
KFR1 220002Z 15007KT 26/06 A3013 RMK A01 T02560059  RH  028%=      5-min Rain = 0
KFR1 220003Z 15008KT 26/06 A3013 RMK A01 T02550058  RH  028%=      5-min Rain = 0
KFR1 220004Z 14008KT 26/06 A3013 RMK A01 T02550058  RH  028%=      5-min Rain = 0
KFR1 220005Z 15008KT 26/06 A3013 RMK A01 T02550057  RH  028%=      5-min Rain = 0
KFR1 220006Z 16005KT 26/06 A3013 RMK A01 T02550058  RH  028%=      5-min Rain = 0
KFR1 220007Z 15006KT 25/06 A3013 RMK A01 T02540058  RH  029%=      5-min Rain = 0
KFR1 220008Z 15006KT 25/06 A3013 RMK A01 T02530058  RH  029%=      5-min Rain = 0
KFR1 220009Z 15007KT 25/06 A3013 RMK A01 T02530058  RH  029%=      5-min Rain = 0
KFR1 220010Z 15008KT 25/06 A3013 RMK A01 T02520057  RH  029%=      5-min Rain = 0
KFR1 220011Z 15007KT 25/06 A3013 RMK A01 T02520057  RH  029%=      5-min Rain = 0
KFR1 220012Z 14006KT 25/06 A3013 RMK A01 T02520057  RH  029%=      5-min Rain = 0
KFR1 220013Z 15007KT 25/06 A3013 RMK A01 T02510056  RH  029%=      5-min Rain = 0
KFR1 220014Z 15007KT 25/06 A3013 RMK A01 T02500056  RH  029%=      5-min Rain = 0
KFR1 220015Z 14005KT 25/06 A3013 RMK A01 T02500056  RH  029%=      5-min Rain = 0
KFR1 220016Z 15006KT 25/06 A3013 RMK A01 T02490056  RH  029%=      5-min Rain = 0
KFR1 220017Z 15007KT 25/06 A3013 RMK A01 T02490056  RH  029%=      5-min Rain = 0
KFR1 220018Z 15007KT 25/06 A3013 RMK A01 T02480056  RH  029%=      5-min Rain = 0
KFR1 220019Z 15006KT 25/06 A3013 RMK A01 T02470055  RH  029%=      5-min Rain = 0
KFR1 220020Z 15006G11KT 25/06 A3014 RMK A01 T02460055  RH  029%=      5-min Rain = 0
KFR1 220021Z 15007KT 25/06 A3014 RMK A01 T02460055  RH  029%=      5-min Rain = 0
KFR1 220022Z 14007KT 25/05 A3014 RMK A01 T02450054  RH  029%=      5-min Rain = 0
KFR1 220023Z 15007KT 25/05 A3014 RMK A01 T02450054  RH  029%=      5-min Rain = 0
KFR1 220024Z 14007G12KT 25/05 A3014 RMK A01 T02450054  RH  029%=      5-min Rain = 0
KFR1 220025Z 15007KT 24/05 A3014 RMK A01 T02440053  RH  029%=      5-min Rain = 0
KFR1 220026Z 14007KT 24/05 A3014 RMK A01 T02440054  RH  029%=      5-min Rain = 0
KFR1 220027Z 14007KT 24/05 A3014 RMK A01 T02420053  RH  029%=      5-min Rain = 0
KFR1 220028Z 15007KT 24/05 A3014 RMK A01 T02420053  RH  029%=      5-min Rain = 0
KFR1 220029Z 15007KT 24/05 A3014 RMK A01 T02420053  RH  030%=      5-min Rain = 0
KFR1 220030Z 14008KT 24/05 A3014 RMK A01 T02410053  RH  030%=      5-min Rain = 0
KFR1 220031Z 14008KT 24/05 A3014 RMK A01 T02400053  RH  030%=      5-min Rain = 0
KFR1 220032Z 14008KT 24/05 A3014 RMK A01 T02390054  RH  030%=      5-min Rain = 0
KFR1 220033Z 14008KT 24/05 A3014 RMK A01 T02390053  RH  030%=      5-min Rain = 0
KFR1 220034Z 14007KT 24/05 A3014 RMK A01 T02380053  RH  030%=      5-min Rain = 0
KFR1 220035Z 14006KT 24/05 A3014 RMK A01 T02380053  RH  030%=      5-min Rain = 0
KFR1 220036Z 14008KT 24/05 A3014 RMK A01 T02370053  RH  030%=      5-min Rain = 0
KFR1 220037Z 14007KT 24/05 A3014 RMK A01 T02360053  RH  031%=      5-min Rain = 0
KFR1 220038Z 14008KT 24/05 A3014 RMK A01 T02350053  RH  031%=      5-min Rain = 0
KFR1 220039Z 14008KT 24/05 A3014 RMK A01 T02350053  RH  031%=      5-min Rain = 0
KFR1 220040Z 14008KT 23/05 A3014 RMK A01 T02340053  RH  031%=      5-min Rain = 0
KFR1 220041Z 13008KT 23/05 A3014 RMK A01 T02330053  RH  031%=      5-min Rain = 0
KFR1 220042Z 14009KT 23/05 A3014 RMK A01 T02330053  RH  031%=      5-min Rain = 0
KFR1 220043Z 14008KT 23/05 A3014 RMK A01 T02330054  RH  031%=      5-min Rain = 0
KFR1 220044Z 14009KT 23/05 A3014 RMK A01 T02330054  RH  031%=      5-min Rain = 0
KFR1 220045Z 14008KT 23/05 A3014 RMK A01 T02320054  RH  031%=      5-min Rain = 0
KFR1 220046Z 14009KT 23/05 A3014 RMK A01 T02320054  RH  032%=      5-min Rain = 0
KFR1 220047Z 14008KT 23/05 A3014 RMK A01 T02320054  RH  032%=      5-min Rain = 0
KFR1 220048Z 14010KT 23/05 A3014 RMK A01 T02310054  RH  032%=      5-min Rain = 0
KFR1 220049Z 14009KT 23/05 A3014 RMK A01 T02300054  RH  032%=      5-min Rain = 0
KFR1 220050Z 14009KT 23/06 A3014 RMK A01 T02300055  RH  032%=      5-min Rain = 0
KFR1 220051Z 14009KT 23/05 A3014 RMK A01 T02290054  RH  032%=      5-min Rain = 0
KFR1 220052Z 15009KT 23/06 A3014 RMK A01 T02290055  RH  032%=      5-min Rain = 0
KFR1 220053Z 14010KT 23/05 A3014 RMK A01 T02280054  RH  032%=      5-min Rain = 0
KFR1 220054Z 14008G13KT 23/06 A3014 RMK A01 T02280055  RH  032%=      5-min Rain = 0
KFR1 220055Z 14009KT 23/06 A3014 RMK A01 T02280055  RH  033%=      5-min Rain = 0
KFR1 220056Z 14009KT 23/06 A3014 RMK A01 T02280055  RH  033%=      5-min Rain = 0
KFR1 220057Z 14008KT 23/06 A3014 RMK A01 T02280055  RH  033%=      5-min Rain = 0
KFR1 220058Z 14008KT 23/06 A3014 RMK A01 T02270055  RH  033%=      5-min Rain = 0
KFR1 220059Z 13009KT 23/06 A3014 RMK A01 T02260056  RH  033%=      5-min Rain = 0
KFR1 220100Z 14010KT 23/06 A3014 RMK A01 T02260056  RH  033%=      5-min Rain = 0
KFR1 220101Z 14009G14KT 23/06 A3014 RMK A01 T02250056  RH  033%=      5-min Rain = 0
KFR1 220102Z 14009KT 23/06 A3014 RMK A01 T02250057  RH  034%=      5-min Rain = 0
KFR1 220103Z 14009KT 22/06 A3014 RMK A01 T02240057  RH  034%=      5-min Rain = 0
KFR1 220104Z 14010KT 22/06 A3014 RMK A01 T02240057  RH  034%=      5-min Rain = 0
KFR1 220105Z 14008KT 22/06 A3014 RMK A01 T02230057  RH  034%=      5-min Rain = 0
KFR1 220106Z 14009KT 22/06 A3014 RMK A01 T02230058  RH  034%=      5-min Rain = 0
KFR1 220107Z 14008KT 22/06 A3014 RMK A01 T02220058  RH  034%=      5-min Rain = 0
KFR1 220108Z 14010KT 22/06 A3014 RMK A01 T02210058  RH  035%=      5-min Rain = 0
KFR1 220109Z 14009KT 22/06 A3014 RMK A01 T02200058  RH  035%=      5-min Rain = 0
KFR1 220110Z 14010KT 22/06 A3014 RMK A01 T02200058  RH  035%=      5-min Rain = 0
KFR1 220111Z 14008KT 22/06 A3014 RMK A01 T02190059  RH  035%=      5-min Rain = 0
KFR1 220112Z 14009KT 22/06 A3014 RMK A01 T02180058  RH  035%=      5-min Rain = 0
KFR1 220113Z 14008KT 22/06 A3014 RMK A01 T02170059  RH  036%=      5-min Rain = 0
KFR1 220114Z 14011KT 22/06 A3014 RMK A01 T02160059  RH  036%=      5-min Rain = 0
KFR1 220115Z 14008KT 22/06 A3014 RMK A01 T02160059  RH  036%=      5-min Rain = 0
KFR1 220116Z 14009KT 22/06 A3014 RMK A01 T02160059  RH  036%=      5-min Rain = 0
KFR1 220117Z 15008G14KT 22/06 A3014 RMK A01 T02150060  RH  036%=      5-min Rain = 0
KFR1 220118Z 14010KT 22/06 A3014 RMK A01 T02150060  RH  037%=      5-min Rain = 0
KFR1 220119Z 14008KT 21/06 A3014 RMK A01 T02140060  RH  037%=      5-min Rain = 0
KFR1 220120Z 15009KT 21/06 A3014 RMK A01 T02130060  RH  037%=      5-min Rain = 0
KFR1 220121Z 14009KT 21/06 A3014 RMK A01 T02130061  RH  037%=      5-min Rain = 0
KFR1 220122Z 15010KT 21/06 A3014 RMK A01 T02120061  RH  038%=      5-min Rain = 0
KFR1 220123Z 15009KT 21/06 A3014 RMK A01 T02110061  RH  038%=      5-min Rain = 0
KFR1 220124Z 15009KT 21/06 A3014 RMK A01 T02100062  RH  038%=      5-min Rain = 0
KFR1 220125Z 14010KT 21/06 A3014 RMK A01 T02100062  RH  038%=      5-min Rain = 0
KFR1 220126Z 15009KT 21/06 A3014 RMK A01 T02100063  RH  038%=      5-min Rain = 0
KFR1 220127Z 15009KT 21/06 A3014 RMK A01 T02090063  RH  038%=      5-min Rain = 0
KFR1 220128Z 14009KT 21/06 A3014 RMK A01 T02090063  RH  039%=      5-min Rain = 0
KFR1 220129Z 14010KT 21/06 A3014 RMK A01 T02080063  RH  039%=      5-min Rain = 0
KFR1 220130Z 14008KT 21/06 A3014 RMK A01 T02080063  RH  039%=      5-min Rain = 0
KFR1 220131Z 15008G14KT 21/06 A3014 RMK A01 T02080064  RH  039%=      5-min Rain = 0
KFR1 220132Z 15008KT 21/06 A3014 RMK A01 T02080064  RH  039%=      5-min Rain = 0
KFR1 220133Z 14008KT 21/06 A3014 RMK A01 T02070064  RH  039%=      5-min Rain = 0
KFR1 220134Z 15008KT 21/06 A3014 RMK A01 T02070064  RH  039%=      5-min Rain = 0
KFR1 220135Z 15008KT 21/06 A3014 RMK A01 T02070064  RH  040%=      5-min Rain = 0
KFR1 220136Z 15008KT 21/06 A3014 RMK A01 T02060064  RH  040%=      5-min Rain = 0
KFR1 220137Z 15008KT 21/06 A3014 RMK A01 T02050064  RH  040%=      5-min Rain = 0
KFR1 220138Z 15008KT 21/06 A3014 RMK A01 T02050064  RH  040%=      5-min Rain = 0
KFR1 220139Z 15009KT 20/07 A3014 RMK A01 T02040065  RH  040%=      5-min Rain = 0
KFR1 220140Z 15009KT 20/06 A3014 RMK A01 T02030064  RH  040%=      5-min Rain = 0
KFR1 220141Z 15008KT 20/07 A3014 RMK A01 T02030065  RH  041%=      5-min Rain = 0
KFR1 220142Z 15009KT 20/07 A3014 RMK A01 T02020065  RH  041%=      5-min Rain = 0
KFR1 220143Z 15008KT 20/07 A3014 RMK A01 T02020065  RH  041%=      5-min Rain = 0
KFR1 220144Z 15009KT 20/07 A3015 RMK A01 T02010065  RH  041%=      5-min Rain = 0
KFR1 220145Z 15009KT 20/07 A3015 RMK A01 T02000065  RH  041%=      5-min Rain = 0
KFR1 220146Z 15009KT 20/07 A3015 RMK A01 T02000066  RH  042%=      5-min Rain = 0
KFR1 220147Z 16008KT 20/07 A3015 RMK A01 T01990066  RH  042%=      5-min Rain = 0
KFR1 220148Z 15008KT 20/07 A3015 RMK A01 T01990066  RH  042%=      5-min Rain = 0
KFR1 220149Z 15008KT 20/07 A3015 RMK A01 T01990067  RH  042%=      5-min Rain = 0
KFR1 220150Z 15009KT 20/07 A3015 RMK A01 T01990067  RH  042%=      5-min Rain = 0
KFR1 220151Z 15009KT 20/07 A3015 RMK A01 T01990068  RH  043%=      5-min Rain = 0
KFR1 220152Z 15009KT 20/07 A3015 RMK A01 T01990068  RH  043%=      5-min Rain = 0
KFR1 220153Z 14009KT 20/07 A3015 RMK A01 T01990068  RH  043%=      5-min Rain = 0
KFR1 220154Z 15007KT 20/07 A3015 RMK A01 T01980069  RH  043%=      5-min Rain = 0
KFR1 220155Z 15009G14KT 20/07 A3015 RMK A01 T01980069  RH  043%=      5-min Rain = 0
KFR1 220156Z 15009KT 20/07 A3015 RMK A01 T01980069  RH  043%=      5-min Rain = 0
KFR1 220157Z 15008KT 20/07 A3015 RMK A01 T01980070  RH  043%=      5-min Rain = 0
KFR1 220158Z 16008KT 20/07 A3015 RMK A01 T01990070  RH  043%=      5-min Rain = 0
KFR1 220159Z 16008KT 20/07 A3015 RMK A01 T01990070  RH  043%=      5-min Rain = 0
KFR1 220200Z 15009KT 20/07 A3015 RMK A01 T01990070  RH  043%=      5-min Rain = 0
KFR1 220201Z 16008KT 20/07 A3015 RMK A01 T01990071  RH  044%=      5-min Rain = 0
KFR1 220202Z 15009KT 20/07 A3015 RMK A01 T01990071  RH  044%=      5-min Rain = 0
KFR1 220203Z 15008KT 20/07 A3015 RMK A01 T01980072  RH  044%=      5-min Rain = 0
KFR1 220204Z 14008KT 20/07 A3015 RMK A01 T01980072  RH  044%=      5-min Rain = 0
KFR1 220205Z 15008KT 20/07 A3015 RMK A01 T01980072  RH  044%=      5-min Rain = 0
KFR1 220206Z 15009KT 20/07 A3015 RMK A01 T01980073  RH  044%=      5-min Rain = 0
KFR1 220207Z 15008KT 20/07 A3015 RMK A01 T01980073  RH  044%=      5-min Rain = 0
KFR1 220208Z 14008KT 20/07 A3015 RMK A01 T01970073  RH  044%=      5-min Rain = 0
KFR1 220209Z 16008KT 20/07 A3015 RMK A01 T01970073  RH  045%=      5-min Rain = 0
KFR1 220210Z 16008KT 20/07 A3015 RMK A01 T01960073  RH  045%=      5-min Rain = 0
KFR1 220211Z 15008KT 20/07 A3015 RMK A01 T01970074  RH  045%=      5-min Rain = 0
KFR1 220212Z 15008KT 20/08 A3015 RMK A01 T01970075  RH  045%=      5-min Rain = 0
KFR1 220213Z 15009KT 20/08 A3015 RMK A01 T01960075  RH  045%=      5-min Rain = 0
KFR1 220214Z 15009KT 20/08 A3015 RMK A01 T01960075  RH  046%=      5-min Rain = 0
KFR1 220215Z 15008KT 20/08 A3015 RMK A01 T01950075  RH  046%=      5-min Rain = 0
KFR1 220216Z 15010G15KT 20/08 A3015 RMK A01 T01950076  RH  046%=      5-min Rain = 0
KFR1 220217Z 15008KT 20/08 A3015 RMK A01 T01960077  RH  046%=      5-min Rain = 0
KFR1 220218Z 16009KT 20/08 A3015 RMK A01 T01960077  RH  046%=      5-min Rain = 0
KFR1 220219Z 15009KT 20/08 A3015 RMK A01 T01960078  RH  047%=      5-min Rain = 0
KFR1 220220Z 15009KT 20/08 A3015 RMK A01 T01960079  RH  047%=      5-min Rain = 0
KFR1 220221Z 15010KT 20/08 A3016 RMK A01 T01970080  RH  047%=      5-min Rain = 0
KFR1 220222Z 15009KT 20/08 A3016 RMK A01 T01960080  RH  047%=      5-min Rain = 0
KFR1 220223Z 15009KT 20/08 A3016 RMK A01 T01970081  RH  047%=      5-min Rain = 0
KFR1 220224Z 15009G14KT 20/08 A3016 RMK A01 T01970082  RH  047%=      5-min Rain = 0
KFR1 220225Z 15009KT 20/08 A3016 RMK A01 T01970082  RH  047%=      5-min Rain = 0
KFR1 220226Z 15008G13KT 20/08 A3016 RMK A01 T01970083  RH  048%=      5-min Rain = 0
KFR1 220227Z 15009KT 20/08 A3016 RMK A01 T01970083  RH  048%=      5-min Rain = 0
KFR1 220228Z 15008KT 20/08 A3016 RMK A01 T01970084  RH  048%=      5-min Rain = 0
KFR1 220229Z 15007KT 20/08 A3016 RMK A01 T01970084  RH  048%=      5-min Rain = 0
KFR1 220230Z 15009KT 20/09 A3016 RMK A01 T01970085  RH  048%=      5-min Rain = 0
KFR1 220231Z 15009KT 20/09 A3016 RMK A01 T01970086  RH  049%=      5-min Rain = 0
KFR1 220232Z 15010G15KT 20/09 A3016 RMK A01 T01960086  RH  049%=      5-min Rain = 0
KFR1 220233Z 15008KT 20/09 A3016 RMK A01 T01960087  RH  049%=      5-min Rain = 0
KFR1 220234Z 15009KT 20/09 A3016 RMK A01 T01960088  RH  050%=      5-min Rain = 0
KFR1 220235Z 15008KT 20/09 A3016 RMK A01 T01960088  RH  050%=      5-min Rain = 0
KFR1 220236Z 15008KT 20/09 A3016 RMK A01 T01950088  RH  050%=      5-min Rain = 0
KFR1 220237Z 15010KT 19/09 A3016 RMK A01 T01940088  RH  050%=      5-min Rain = 0
KFR1 220238Z 15010KT 19/09 A3016 RMK A01 T01940089  RH  051%=      5-min Rain = 0
KFR1 220239Z 15008KT 19/09 A3016 RMK A01 T01940090  RH  051%=      5-min Rain = 0
KFR1 220240Z 15010G15KT 19/09 A3016 RMK A01 T01940090  RH  051%=      5-min Rain = 0
KFR1 220241Z 14009KT 19/09 A3016 RMK A01 T01930090  RH  051%=      5-min Rain = 0
KFR1 220242Z 15011KT 19/09 A3016 RMK A01 T01930090  RH  051%=      5-min Rain = 0
KFR1 220243Z 15009KT 19/09 A3016 RMK A01 T01930091  RH  052%=      5-min Rain = 0
KFR1 220244Z 16009KT 19/09 A3016 RMK A01 T01930091  RH  052%=      5-min Rain = 0
KFR1 220245Z 16011G16KT 19/09 A3016 RMK A01 T01920092  RH  052%=      5-min Rain = 0
KFR1 220246Z 16012G19KT 19/09 A3016 RMK A01 T01920092  RH  052%=      5-min Rain = 0
KFR1 220247Z 15010KT 19/09 A3016 RMK A01 T01920092  RH  052%=      5-min Rain = 0
KFR1 220248Z 16011KT 19/09 A3016 RMK A01 T01920092  RH  052%=      5-min Rain = 0
KFR1 220249Z 15011G17KT 19/09 A3016 RMK A01 T01920093  RH  053%=      5-min Rain = 0
KFR1 220250Z 16013G18KT 19/09 A3017 RMK A01 T01930094  RH  053%=      5-min Rain = 0
KFR1 220251Z 15012KT 19/10 A3017 RMK A01 T01930095  RH  053%=      5-min Rain = 0
KFR1 220252Z 16013G18KT 19/10 A3017 RMK A01 T01930095  RH  053%=      5-min Rain = 0
KFR1 220253Z 16014KT 19/10 A3017 RMK A01 T01930096  RH  053%=      5-min Rain = 0
KFR1 220254Z 15012KT 19/10 A3017 RMK A01 T01940098  RH  054%=      5-min Rain = 0
KFR1 220255Z 15012G19KT 19/10 A3017 RMK A01 T01940098  RH  054%=      5-min Rain = 0
KFR1 220256Z 16015G20KT 19/10 A3017 RMK A01 T01940100  RH  054%=      5-min Rain = 0
KFR1 220257Z 16012G17KT 19/10 A3017 RMK A01 T01940100  RH  054%=      5-min Rain = 0
KFR1 220258Z 16013KT 19/10 A3017 RMK A01 T01940101  RH  055%=      5-min Rain = 0
KFR1 220259Z 15014KT 19/10 A3017 RMK A01 T01940101  RH  055%=      5-min Rain = 0
KFR1 220300Z 16012KT 19/10 A3017 RMK A01 T01940102  RH  055%=      5-min Rain = 0
KFR1 220301Z 16013G18KT 19/10 A3017 RMK A01 T01940102  RH  055%=      5-min Rain = 0
KFR1 220302Z 15013G20KT 19/10 A3017 RMK A01 T01930103  RH  056%=      5-min Rain = 0
KFR1 220303Z 16013KT 19/10 A3017 RMK A01 T01930103  RH  056%=      5-min Rain = 0
KFR1 220304Z 15013KT 19/10 A3017 RMK A01 T01930103  RH  056%=      5-min Rain = 0
KFR1 220305Z 16014KT 19/10 A3017 RMK A01 T01920104  RH  057%=      5-min Rain = 0
KFR1 220306Z 16013G18KT 19/11 A3017 RMK A01 T01920105  RH  057%=      5-min Rain = 0
KFR1 220307Z 16017G22KT 19/11 A3017 RMK A01 T01920105  RH  057%=      5-min Rain = 0
KFR1 220308Z 16015KT 19/11 A3017 RMK A01 T01920105  RH  057%=      5-min Rain = 0
KFR1 220309Z 16014G19KT 19/11 A3017 RMK A01 T01920105  RH  057%=      5-min Rain = 0
KFR1 220310Z 16014G20KT 19/11 A3017 RMK A01 T01910106  RH  058%=      5-min Rain = 0
KFR1 220311Z 16014KT 19/11 A3017 RMK A01 T01910106  RH  058%=      5-min Rain = 0
KFR1 220312Z 16011KT 19/11 A3017 RMK A01 T01910106  RH  058%=      5-min Rain = 0
KFR1 220313Z 16013G19KT 19/11 A3017 RMK A01 T01900106  RH  058%=      5-min Rain = 0
KFR1 220314Z 16013KT 19/11 A3017 RMK A01 T01900107  RH  059%=      5-min Rain = 0
KFR1 220315Z 16014KT 19/11 A3017 RMK A01 T01900107  RH  059%=      5-min Rain = 0
KFR1 220316Z 16014KT 19/11 A3017 RMK A01 T01900107  RH  059%=      5-min Rain = 0
KFR1 220317Z 16013KT 19/11 A3017 RMK A01 T01900108  RH  059%=      5-min Rain = 0
KFR1 220318Z 16013KT 19/11 A3017 RMK A01 T01900108  RH  059%=      5-min Rain = 0
KFR1 220319Z 16014G19KT 19/11 A3017 RMK A01 T01900109  RH  059%=      5-min Rain = 0
KFR1 220320Z 16010KT 19/11 A3017 RMK A01 T01900108  RH  059%=      5-min Rain = 0
KFR1 220321Z 16013KT 19/11 A3017 RMK A01 T01890108  RH  059%=      5-min Rain = 0
KFR1 220322Z 16014KT 19/11 A3017 RMK A01 T01890108  RH  059%=      5-min Rain = 0
KFR1 220323Z 16012KT 19/11 A3017 RMK A01 T01890109  RH  059%=      5-min Rain = 0
KFR1 220324Z 16015KT 19/11 A3017 RMK A01 T01890109  RH  060%=      5-min Rain = 0
KFR1 220325Z 16014KT 19/11 A3017 RMK A01 T01890109  RH  060%=      5-min Rain = 0
KFR1 220326Z 16013G18KT 19/11 A3017 RMK A01 T01890109  RH  060%=      5-min Rain = 0
KFR1 220327Z 16017KT 19/11 A3017 RMK A01 T01890109  RH  060%=      5-min Rain = 0
KFR1 220328Z 16013G18KT 19/11 A3017 RMK A01 T01880109  RH  060%=      5-min Rain = 0
KFR1 220329Z 16015G20KT 19/11 A3017 RMK A01 T01880109  RH  060%=      5-min Rain = 0
KFR1 220330Z 16016KT 19/11 A3017 RMK A01 T01880110  RH  060%=      5-min Rain = 0
KFR1 220331Z 16014KT 19/11 A3017 RMK A01 T01880110  RH  060%=      5-min Rain = 0
KFR1 220332Z 16015KT 19/11 A3017 RMK A01 T01870110  RH  061%=      5-min Rain = 0
KFR1 220333Z 16015KT 19/11 A3017 RMK A01 T01870110  RH  061%=      5-min Rain = 0
KFR1 220334Z 16017KT 19/11 A3017 RMK A01 T01870111  RH  061%=      5-min Rain = 0
KFR1 220335Z 16016G21KT 19/11 A3017 RMK A01 T01870111  RH  061%=      5-min Rain = 0
KFR1 220336Z 16015KT 19/11 A3017 RMK A01 T01870111  RH  062%=      5-min Rain = 0
KFR1 220337Z 16015KT 19/11 A3017 RMK A01 T01870112  RH  062%=      5-min Rain = 0
KFR1 220338Z 16018KT 19/11 A3017 RMK A01 T01860113  RH  062%=      5-min Rain = 0
KFR1 220339Z 16015G20KT 19/11 A3017 RMK A01 T01860113  RH  063%=      5-min Rain = 0
KFR1 220340Z 16013G21KT 19/11 A3017 RMK A01 T01860114  RH  063%=      5-min Rain = 0
KFR1 220341Z 16016KT 19/11 A3017 RMK A01 T01850114  RH  063%=      5-min Rain = 0
KFR1 220342Z 16013G18KT 19/11 A3017 RMK A01 T01850114  RH  063%=      5-min Rain = 0
KFR1 220343Z 16014G19KT 19/11 A3017 RMK A01 T01850114  RH  063%=      5-min Rain = 0
KFR1 220344Z 16012G17KT 18/11 A3017 RMK A01 T01840114  RH  064%=      5-min Rain = 0
KFR1 220345Z 16016G21KT 18/12 A3017 RMK A01 T01840115  RH  064%=      5-min Rain = 0
KFR1 220346Z 16016G21KT 18/12 A3017 RMK A01 T01840115  RH  064%=      5-min Rain = 0
KFR1 220347Z 16015KT 18/12 A3017 RMK A01 T01840115  RH  064%=      5-min Rain = 0
KFR1 220348Z 16014KT 18/12 A3017 RMK A01 T01840115  RH  064%=      5-min Rain = 0
KFR1 220349Z 16014KT 18/12 A3017 RMK A01 T01840115  RH  064%=      5-min Rain = 0
KFR1 220350Z 16016KT 18/12 A3017 RMK A01 T01830115  RH  065%=      5-min Rain = 0
KFR1 220351Z 16016KT 18/12 A3017 RMK A01 T01830116  RH  065%=      5-min Rain = 0
KFR1 220352Z 16015KT 18/12 A3017 RMK A01 T01830116  RH  065%=      5-min Rain = 0
KFR1 220353Z 16014KT 18/12 A3017 RMK A01 T01820115  RH  065%=      5-min Rain = 0
KFR1 220354Z 16015KT 18/12 A3017 RMK A01 T01830116  RH  065%=      5-min Rain = 0
KFR1 220355Z 16014KT 18/12 A3017 RMK A01 T01820116  RH  065%=      5-min Rain = 0
KFR1 220356Z 16016G21KT 18/12 A3017 RMK A01 T01820116  RH  065%=      5-min Rain = 0
KFR1 220357Z 16014KT 18/12 A3017 RMK A01 T01820116  RH  065%=      5-min Rain = 0
KFR1 220358Z 15013G18KT 18/12 A3017 RMK A01 T01810116  RH  066%=      5-min Rain = 0
KFR1 220359Z 16016G21KT 18/12 A3017 RMK A01 T01810116  RH  066%=      5-min Rain = 0
KFR1 220400Z 16014KT 18/12 A3017 RMK A01 T01810116  RH  066%=      5-min Rain = 0
KFR1 220401Z 16015KT 18/12 A3017 RMK A01 T01810116  RH  066%=      5-min Rain = 0
KFR1 220402Z 16016KT 18/12 A3017 RMK A01 T01800116  RH  066%=      5-min Rain = 0
KFR1 220403Z 16014KT 18/12 A3017 RMK A01 T01810117  RH  066%=      5-min Rain = 0
KFR1 220404Z 16015KT 18/12 A3017 RMK A01 T01800116  RH  066%=      5-min Rain = 0
KFR1 220405Z 16014KT 18/12 A3017 RMK A01 T01800117  RH  066%=      5-min Rain = 0
KFR1 220406Z 16017G22KT 18/12 A3017 RMK A01 T01800117  RH  067%=      5-min Rain = 0
KFR1 220407Z 16014G21KT 18/12 A3017 RMK A01 T01800117  RH  067%=      5-min Rain = 0
KFR1 220408Z 16014G19KT 18/12 A3017 RMK A01 T01800117  RH  067%=      5-min Rain = 0
KFR1 220409Z 16013KT 18/12 A3017 RMK A01 T01790117  RH  067%=      5-min Rain = 0
KFR1 220410Z 16012KT 18/12 A3017 RMK A01 T01790117  RH  067%=      5-min Rain = 0
KFR1 220411Z 16015KT 18/12 A3017 RMK A01 T01780117  RH  067%=      5-min Rain = 0
KFR1 220412Z 16014KT 18/12 A3017 RMK A01 T01780117  RH  067%=      5-min Rain = 0
KFR1 220413Z 16014G19KT 18/12 A3016 RMK A01 T01780117  RH  067%=      5-min Rain = 0
KFR1 220414Z 15015G22KT 18/12 A3016 RMK A01 T01780117  RH  067%=      5-min Rain = 0
KFR1 220415Z 16015KT 18/12 A3016 RMK A01 T01780117  RH  068%=      5-min Rain = 0
KFR1 220416Z 16017G22KT 18/12 A3016 RMK A01 T01780118  RH  068%=      5-min Rain = 0
KFR1 220417Z 16015KT 18/12 A3016 RMK A01 T01780118  RH  068%=      5-min Rain = 0
KFR1 220418Z 16014KT 18/12 A3016 RMK A01 T01780117  RH  068%=      5-min Rain = 0
KFR1 220419Z 16014KT 18/12 A3016 RMK A01 T01770118  RH  068%=      5-min Rain = 0
KFR1 220420Z 16017KT 18/12 A3016 RMK A01 T01770118  RH  068%=      5-min Rain = 0
KFR1 220421Z 16015KT 18/12 A3017 RMK A01 T01770118  RH  068%=      5-min Rain = 0
KFR1 220422Z 16016KT 18/12 A3016 RMK A01 T01770118  RH  068%=      5-min Rain = 0
KFR1 220423Z 16013G20KT 18/12 A3016 RMK A01 T01770118  RH  068%=      5-min Rain = 0
KFR1 220424Z 16017KT 18/12 A3016 RMK A01 T01770119  RH  069%=      5-min Rain = 0
KFR1 220425Z 16015G22KT 18/12 A3016 RMK A01 T01770119  RH  069%=      5-min Rain = 0
KFR1 220426Z 16013KT 18/12 A3016 RMK A01 T01760119  RH  069%=      5-min Rain = 0
KFR1 220427Z 16015KT 18/12 A3016 RMK A01 T01760119  RH  069%=      5-min Rain = 0
KFR1 220428Z 16015G20KT 18/12 A3016 RMK A01 T01760119  RH  069%=      5-min Rain = 0
KFR1 220429Z 16017G22KT 18/12 A3017 RMK A01 T01750119  RH  069%=      5-min Rain = 0
KFR1 220430Z 16015G23KT 18/12 A3016 RMK A01 T01750119  RH  069%=      5-min Rain = 0
KFR1 220431Z 16016KT 18/12 A3016 RMK A01 T01750119  RH  069%=      5-min Rain = 0
KFR1 220432Z 16015G20KT 18/12 A3017 RMK A01 T01750119  RH  069%=      5-min Rain = 0
KFR1 220433Z 16013G20KT 18/12 A3017 RMK A01 T01750119  RH  070%=      5-min Rain = 0
KFR1 220434Z 15013KT 17/12 A3017 RMK A01 T01740119  RH  070%=      5-min Rain = 0
KFR1 220435Z 16016KT 17/12 A3017 RMK A01 T01740118  RH  070%=      5-min Rain = 0
KFR1 220436Z 16015G20KT 17/12 A3017 RMK A01 T01740119  RH  070%=      5-min Rain = 0
KFR1 220437Z 16013G19KT 17/12 A3017 RMK A01 T01740119  RH  070%=      5-min Rain = 0
KFR1 220438Z 16014KT 17/12 A3017 RMK A01 T01730119  RH  070%=      5-min Rain = 0
KFR1 220439Z 16014G19KT 17/12 A3017 RMK A01 T01730118  RH  070%=      5-min Rain = 0
KFR1 220440Z 16016KT 17/12 A3017 RMK A01 T01730119  RH  070%=      5-min Rain = 0
KFR1 220441Z 16013KT 17/12 A3017 RMK A01 T01730119  RH  070%=      5-min Rain = 0
KFR1 220442Z 16013G18KT 17/12 A3017 RMK A01 T01730119  RH  070%=      5-min Rain = 0
KFR1 220443Z 16014KT 17/12 A3017 RMK A01 T01720118  RH  071%=      5-min Rain = 0
KFR1 220444Z 16017G23KT 17/12 A3017 RMK A01 T01720119  RH  071%=      5-min Rain = 0
KFR1 220445Z 16016KT 17/12 A3017 RMK A01 T01720119  RH  071%=      5-min Rain = 0
KFR1 220446Z 16017G22KT 17/12 A3017 RMK A01 T01720119  RH  071%=      5-min Rain = 0
KFR1 220447Z 16015G21KT 17/12 A3017 RMK A01 T01720118  RH  071%=      5-min Rain = 0
KFR1 220448Z 17013G18KT 17/12 A3017 RMK A01 T01720118  RH  071%=      5-min Rain = 0
KFR1 220449Z 16017KT 17/12 A3017 RMK A01 T01720118  RH  071%=      5-min Rain = 0
KFR1 220450Z 16014G20KT 17/12 A3017 RMK A01 T01730119  RH  071%=      5-min Rain = 0
KFR1 220451Z 16016KT 17/12 A3017 RMK A01 T01720119  RH  071%=      5-min Rain = 0
KFR1 220452Z 16012KT 17/12 A3017 RMK A01 T01720119  RH  071%=      5-min Rain = 0
KFR1 220453Z 16016KT 17/12 A3017 RMK A01 T01720119  RH  071%=      5-min Rain = 0
KFR1 220454Z 16015G21KT 17/12 A3017 RMK A01 T01720119  RH  071%=      5-min Rain = 0
KFR1 220455Z 16014G19KT 17/12 A3017 RMK A01 T01710118  RH  071%=      5-min Rain = 0
KFR1 220456Z 16014G20KT 17/12 A3016 RMK A01 T01710119  RH  071%=      5-min Rain = 0
KFR1 220457Z 16017KT 17/12 A3016 RMK A01 T01710119  RH  071%=      5-min Rain = 0
KFR1 220458Z 16015KT 17/12 A3016 RMK A01 T01710119  RH  071%=      5-min Rain = 0
KFR1 220459Z 16018KT 17/12 A3016 RMK A01 T01710118  RH  071%=      5-min Rain = 0

Page generated in 0.069 seconds.